<?xml version="1.0" encoding="UTF-8" standalone="no" ?>
<gpx xmlns="http://www.topografix.com/GPX/1/1" xmlns:xsi="http://www.w3.org/2001/XMLSchema-instance" xsi:schemaLocation="http://www.topografix.com/GPX/1/1 http://www.topografix.com/GPX/1/1/gpx.xsd" version="1.1" creator="VisuGPX - https://www.visugpx.com">
  <metadata>
    <name>Moyens, boucle du 07/12/2013</name>
    <desc><![CDATA[Boucle des Moyens]]></desc>
  </metadata>
  <trk>
    <name><![CDATA[07-DEC-13 boucle des moyens]]></name>
    <trkseg>
      <trkpt lat="43.00737" lon="-0.09478">
        <ele>302.95</ele>
        <time>2013-12-07T09:10:28Z</time>
      </trkpt>
      <trkpt lat="43.00737" lon="-0.09478">
        <ele>305.84</ele>
        <time>2013-12-07T09:10:31Z</time>
      </trkpt>
      <trkpt lat="43.00735" lon="-0.09486">
        <ele>308.72</ele>
        <time>2013-12-07T09:10:54Z</time>
      </trkpt>
      <trkpt lat="43.00735" lon="-0.09486">
        <ele>312.09</ele>
        <time>2013-12-07T09:10:55Z</time>
      </trkpt>
      <trkpt lat="43.00735" lon="-0.09487">
        <ele>315.93</ele>
        <time>2013-12-07T09:10:56Z</time>
      </trkpt>
      <trkpt lat="43.00735" lon="-0.09487">
        <ele>319.3</ele>
        <time>2013-12-07T09:10:57Z</time>
      </trkpt>
      <trkpt lat="43.00735" lon="-0.09487">
        <ele>322.66</ele>
        <time>2013-12-07T09:10:58Z</time>
      </trkpt>
      <trkpt lat="43.00734" lon="-0.09487">
        <ele>326.02</ele>
        <time>2013-12-07T09:10:59Z</time>
      </trkpt>
      <trkpt lat="43.00732" lon="-0.0949">
        <ele>331.79</ele>
        <time>2013-12-07T09:11:01Z</time>
      </trkpt>
      <trkpt lat="43.00731" lon="-0.09492">
        <ele>335.16</ele>
        <time>2013-12-07T09:11:02Z</time>
      </trkpt>
      <trkpt lat="43.00732" lon="-0.09496">
        <ele>340.44</ele>
        <time>2013-12-07T09:11:04Z</time>
      </trkpt>
      <trkpt lat="43.00734" lon="-0.095">
        <ele>345.73</ele>
        <time>2013-12-07T09:11:06Z</time>
      </trkpt>
      <trkpt lat="43.00735" lon="-0.09502">
        <ele>348.62</ele>
        <time>2013-12-07T09:11:07Z</time>
      </trkpt>
      <trkpt lat="43.00738" lon="-0.09504">
        <ele>353.42</ele>
        <time>2013-12-07T09:11:09Z</time>
      </trkpt>
      <trkpt lat="43.0074" lon="-0.09505">
        <ele>358.23</ele>
        <time>2013-12-07T09:11:11Z</time>
      </trkpt>
      <trkpt lat="43.00742" lon="-0.09506">
        <ele>360.15</ele>
        <time>2013-12-07T09:11:12Z</time>
      </trkpt>
      <trkpt lat="43.00745" lon="-0.09509">
        <ele>366.4</ele>
        <time>2013-12-07T09:11:15Z</time>
      </trkpt>
      <trkpt lat="43.00747" lon="-0.0951">
        <ele>368.8</ele>
        <time>2013-12-07T09:11:16Z</time>
      </trkpt>
      <trkpt lat="43.00752" lon="-0.09507">
        <ele>374.57</ele>
        <time>2013-12-07T09:11:19Z</time>
      </trkpt>
      <trkpt lat="43.00754" lon="-0.09504">
        <ele>377.94</ele>
        <time>2013-12-07T09:11:21Z</time>
      </trkpt>
      <trkpt lat="43.00763" lon="-0.09499">
        <ele>384.18</ele>
        <time>2013-12-07T09:11:25Z</time>
      </trkpt>
      <trkpt lat="43.00768" lon="-0.09498">
        <ele>387.07</ele>
        <time>2013-12-07T09:11:27Z</time>
      </trkpt>
      <trkpt lat="43.0078" lon="-0.09509">
        <ele>392.84</ele>
        <time>2013-12-07T09:11:32Z</time>
      </trkpt>
      <trkpt lat="43.00786" lon="-0.09517">
        <ele>395.72</ele>
        <time>2013-12-07T09:11:35Z</time>
      </trkpt>
      <trkpt lat="43.00792" lon="-0.09525">
        <ele>399.08</ele>
        <time>2013-12-07T09:11:38Z</time>
      </trkpt>
      <trkpt lat="43.00802" lon="-0.09537">
        <ele>402.45</ele>
        <time>2013-12-07T09:11:42Z</time>
      </trkpt>
      <trkpt lat="43.00811" lon="-0.09548">
        <ele>406.29</ele>
        <time>2013-12-07T09:11:46Z</time>
      </trkpt>
      <trkpt lat="43.00819" lon="-0.0956">
        <ele>409.18</ele>
        <time>2013-12-07T09:11:50Z</time>
      </trkpt>
      <trkpt lat="43.00824" lon="-0.09564">
        <ele>410.14</ele>
        <time>2013-12-07T09:11:52Z</time>
      </trkpt>
      <trkpt lat="43.00836" lon="-0.09578">
        <ele>413.5</ele>
        <time>2013-12-07T09:11:57Z</time>
      </trkpt>
      <trkpt lat="43.00855" lon="-0.09602">
        <ele>416.87</ele>
        <time>2013-12-07T09:12:04Z</time>
      </trkpt>
      <trkpt lat="43.00871" lon="-0.09622">
        <ele>420.23</ele>
        <time>2013-12-07T09:12:10Z</time>
      </trkpt>
      <trkpt lat="43.00874" lon="-0.09626">
        <ele>420.23</ele>
        <time>2013-12-07T09:12:11Z</time>
      </trkpt>
      <trkpt lat="43.00902" lon="-0.09655">
        <ele>423.12</ele>
        <time>2013-12-07T09:12:21Z</time>
      </trkpt>
      <trkpt lat="43.00948" lon="-0.09705">
        <ele>425.52</ele>
        <time>2013-12-07T09:12:37Z</time>
      </trkpt>
      <trkpt lat="43.01007" lon="-0.09751">
        <ele>423.6</ele>
        <time>2013-12-07T09:12:50Z</time>
      </trkpt>
      <trkpt lat="43.01035" lon="-0.09765">
        <ele>422.64</ele>
        <time>2013-12-07T09:12:55Z</time>
      </trkpt>
      <trkpt lat="43.01119" lon="-0.09788">
        <ele>419.27</ele>
        <time>2013-12-07T09:13:08Z</time>
      </trkpt>
      <trkpt lat="43.01133" lon="-0.09789">
        <ele>419.27</ele>
        <time>2013-12-07T09:13:10Z</time>
      </trkpt>
      <trkpt lat="43.01145" lon="-0.09791">
        <ele>418.79</ele>
        <time>2013-12-07T09:13:12Z</time>
      </trkpt>
      <trkpt lat="43.01257" lon="-0.09784">
        <ele>418.31</ele>
        <time>2013-12-07T09:13:29Z</time>
      </trkpt>
      <trkpt lat="43.01273" lon="-0.09783">
        <ele>418.79</ele>
        <time>2013-12-07T09:13:32Z</time>
      </trkpt>
      <trkpt lat="43.01349" lon="-0.09776">
        <ele>418.79</ele>
        <time>2013-12-07T09:13:47Z</time>
      </trkpt>
      <trkpt lat="43.01437" lon="-0.09764">
        <ele>417.35</ele>
        <time>2013-12-07T09:14:03Z</time>
      </trkpt>
      <trkpt lat="43.01521" lon="-0.0974">
        <ele>415.91</ele>
        <time>2013-12-07T09:14:18Z</time>
      </trkpt>
      <trkpt lat="43.01592" lon="-0.09722">
        <ele>415.43</ele>
        <time>2013-12-07T09:14:31Z</time>
      </trkpt>
      <trkpt lat="43.01649" lon="-0.09706">
        <ele>414.95</ele>
        <time>2013-12-07T09:14:42Z</time>
      </trkpt>
      <trkpt lat="43.01666" lon="-0.09702">
        <ele>414.95</ele>
        <time>2013-12-07T09:14:46Z</time>
      </trkpt>
      <trkpt lat="43.01756" lon="-0.09678">
        <ele>413.5</ele>
        <time>2013-12-07T09:15:04Z</time>
      </trkpt>
      <trkpt lat="43.01833" lon="-0.09644">
        <ele>413.02</ele>
        <time>2013-12-07T09:15:19Z</time>
      </trkpt>
      <trkpt lat="43.01895" lon="-0.09597">
        <ele>412.06</ele>
        <time>2013-12-07T09:15:32Z</time>
      </trkpt>
      <trkpt lat="43.01928" lon="-0.09562">
        <ele>412.54</ele>
        <time>2013-12-07T09:15:41Z</time>
      </trkpt>
      <trkpt lat="43.01932" lon="-0.09575">
        <ele>412.06</ele>
        <time>2013-12-07T09:15:45Z</time>
      </trkpt>
      <trkpt lat="43.01931" lon="-0.09645">
        <ele>413.98</ele>
        <time>2013-12-07T09:16:01Z</time>
      </trkpt>
      <trkpt lat="43.01932" lon="-0.0966">
        <ele>415.43</ele>
        <time>2013-12-07T09:16:13Z</time>
      </trkpt>
      <trkpt lat="43.01931" lon="-0.09659">
        <ele>415.43</ele>
        <time>2013-12-07T09:16:32Z</time>
      </trkpt>
      <trkpt lat="43.0193" lon="-0.09665">
        <ele>415.43</ele>
        <time>2013-12-07T09:16:45Z</time>
      </trkpt>
      <trkpt lat="43.01916" lon="-0.09689">
        <ele>416.39</ele>
        <time>2013-12-07T09:16:55Z</time>
      </trkpt>
      <trkpt lat="43.01917" lon="-0.09693">
        <ele>416.87</ele>
        <time>2013-12-07T09:16:57Z</time>
      </trkpt>
      <trkpt lat="43.01934" lon="-0.09704">
        <ele>420.23</ele>
        <time>2013-12-07T09:17:09Z</time>
      </trkpt>
      <trkpt lat="43.01956" lon="-0.09701">
        <ele>422.64</ele>
        <time>2013-12-07T09:17:21Z</time>
      </trkpt>
      <trkpt lat="43.01976" lon="-0.097">
        <ele>426</ele>
        <time>2013-12-07T09:17:34Z</time>
      </trkpt>
      <trkpt lat="43.01988" lon="-0.09712">
        <ele>428.89</ele>
        <time>2013-12-07T09:17:44Z</time>
      </trkpt>
      <trkpt lat="43.01991" lon="-0.09715">
        <ele>429.37</ele>
        <time>2013-12-07T09:17:46Z</time>
      </trkpt>
      <trkpt lat="43.01995" lon="-0.0972">
        <ele>429.85</ele>
        <time>2013-12-07T09:17:50Z</time>
      </trkpt>
      <trkpt lat="43.02" lon="-0.09726">
        <ele>430.33</ele>
        <time>2013-12-07T09:17:54Z</time>
      </trkpt>
      <trkpt lat="43.02004" lon="-0.09733">
        <ele>430.81</ele>
        <time>2013-12-07T09:17:59Z</time>
      </trkpt>
      <trkpt lat="43.02013" lon="-0.0975">
        <ele>433.21</ele>
        <time>2013-12-07T09:18:12Z</time>
      </trkpt>
      <trkpt lat="43.02008" lon="-0.09759">
        <ele>434.65</ele>
        <time>2013-12-07T09:18:18Z</time>
      </trkpt>
      <trkpt lat="43.02001" lon="-0.09765">
        <ele>436.1</ele>
        <time>2013-12-07T09:18:26Z</time>
      </trkpt>
      <trkpt lat="43.01997" lon="-0.09765">
        <ele>437.06</ele>
        <time>2013-12-07T09:18:40Z</time>
      </trkpt>
      <trkpt lat="43.01995" lon="-0.09767">
        <ele>437.54</ele>
        <time>2013-12-07T09:18:53Z</time>
      </trkpt>
      <trkpt lat="43.01989" lon="-0.0977">
        <ele>438.5</ele>
        <time>2013-12-07T09:19:06Z</time>
      </trkpt>
      <trkpt lat="43.01979" lon="-0.09776">
        <ele>440.42</ele>
        <time>2013-12-07T09:19:20Z</time>
      </trkpt>
      <trkpt lat="43.01977" lon="-0.09778">
        <ele>440.9</ele>
        <time>2013-12-07T09:19:26Z</time>
      </trkpt>
      <trkpt lat="43.01969" lon="-0.09783">
        <ele>441.86</ele>
        <time>2013-12-07T09:19:39Z</time>
      </trkpt>
      <trkpt lat="43.01959" lon="-0.09789">
        <ele>444.27</ele>
        <time>2013-12-07T09:19:52Z</time>
      </trkpt>
      <trkpt lat="43.01951" lon="-0.09791">
        <ele>445.23</ele>
        <time>2013-12-07T09:19:59Z</time>
      </trkpt>
      <trkpt lat="43.01948" lon="-0.09795">
        <ele>445.23</ele>
        <time>2013-12-07T09:20:03Z</time>
      </trkpt>
      <trkpt lat="43.01945" lon="-0.09804">
        <ele>445.71</ele>
        <time>2013-12-07T09:20:11Z</time>
      </trkpt>
      <trkpt lat="43.01946" lon="-0.09816">
        <ele>446.67</ele>
        <time>2013-12-07T09:20:19Z</time>
      </trkpt>
      <trkpt lat="43.01945" lon="-0.0982">
        <ele>447.63</ele>
        <time>2013-12-07T09:20:22Z</time>
      </trkpt>
      <trkpt lat="43.01941" lon="-0.09843">
        <ele>449.07</ele>
        <time>2013-12-07T09:20:36Z</time>
      </trkpt>
      <trkpt lat="43.0194" lon="-0.09869">
        <ele>451.48</ele>
        <time>2013-12-07T09:20:49Z</time>
      </trkpt>
      <trkpt lat="43.01945" lon="-0.09874">
        <ele>452.92</ele>
        <time>2013-12-07T09:20:54Z</time>
      </trkpt>
      <trkpt lat="43.01963" lon="-0.09883">
        <ele>455.8</ele>
        <time>2013-12-07T09:21:08Z</time>
      </trkpt>
      <trkpt lat="43.01979" lon="-0.09884">
        <ele>458.69</ele>
        <time>2013-12-07T09:21:20Z</time>
      </trkpt>
      <trkpt lat="43.01987" lon="-0.09892">
        <ele>460.61</ele>
        <time>2013-12-07T09:21:28Z</time>
      </trkpt>
      <trkpt lat="43.01989" lon="-0.09904">
        <ele>461.09</ele>
        <time>2013-12-07T09:21:35Z</time>
      </trkpt>
      <trkpt lat="43.01992" lon="-0.09909">
        <ele>462.05</ele>
        <time>2013-12-07T09:21:51Z</time>
      </trkpt>
      <trkpt lat="43.01992" lon="-0.0991">
        <ele>462.05</ele>
        <time>2013-12-07T09:22:07Z</time>
      </trkpt>
      <trkpt lat="43.0199" lon="-0.09912">
        <ele>462.05</ele>
        <time>2013-12-07T09:22:30Z</time>
      </trkpt>
      <trkpt lat="43.01989" lon="-0.09912">
        <ele>462.05</ele>
        <time>2013-12-07T09:22:49Z</time>
      </trkpt>
      <trkpt lat="43.0199" lon="-0.09913">
        <ele>462.05</ele>
        <time>2013-12-07T09:23:06Z</time>
      </trkpt>
      <trkpt lat="43.01991" lon="-0.09913">
        <ele>462.53</ele>
        <time>2013-12-07T09:23:22Z</time>
      </trkpt>
      <trkpt lat="43.01991" lon="-0.09913">
        <ele>461.57</ele>
        <time>2013-12-07T09:23:33Z</time>
      </trkpt>
      <trkpt lat="43.01992" lon="-0.09917">
        <ele>462.05</ele>
        <time>2013-12-07T09:23:36Z</time>
      </trkpt>
      <trkpt lat="43.01995" lon="-0.09932">
        <ele>463.01</ele>
        <time>2013-12-07T09:23:44Z</time>
      </trkpt>
      <trkpt lat="43.02004" lon="-0.09955">
        <ele>464.45</ele>
        <time>2013-12-07T09:23:57Z</time>
      </trkpt>
      <trkpt lat="43.02009" lon="-0.09963">
        <ele>465.42</ele>
        <time>2013-12-07T09:24:03Z</time>
      </trkpt>
      <trkpt lat="43.02022" lon="-0.09973">
        <ele>468.3</ele>
        <time>2013-12-07T09:24:16Z</time>
      </trkpt>
      <trkpt lat="43.02024" lon="-0.09976">
        <ele>468.3</ele>
        <time>2013-12-07T09:24:19Z</time>
      </trkpt>
      <trkpt lat="43.02028" lon="-0.09979">
        <ele>468.78</ele>
        <time>2013-12-07T09:24:23Z</time>
      </trkpt>
      <trkpt lat="43.0203" lon="-0.09981">
        <ele>469.26</ele>
        <time>2013-12-07T09:24:26Z</time>
      </trkpt>
      <trkpt lat="43.02034" lon="-0.09982">
        <ele>470.22</ele>
        <time>2013-12-07T09:24:31Z</time>
      </trkpt>
      <trkpt lat="43.0205" lon="-0.0998">
        <ele>473.11</ele>
        <time>2013-12-07T09:24:46Z</time>
      </trkpt>
      <trkpt lat="43.02054" lon="-0.0998">
        <ele>473.11</ele>
        <time>2013-12-07T09:24:48Z</time>
      </trkpt>
      <trkpt lat="43.02066" lon="-0.09982">
        <ele>475.03</ele>
        <time>2013-12-07T09:24:57Z</time>
      </trkpt>
      <trkpt lat="43.02081" lon="-0.09997">
        <ele>476.95</ele>
        <time>2013-12-07T09:25:12Z</time>
      </trkpt>
      <trkpt lat="43.02087" lon="-0.10001">
        <ele>476.47</ele>
        <time>2013-12-07T09:25:22Z</time>
      </trkpt>
      <trkpt lat="43.02087" lon="-0.10001">
        <ele>476.47</ele>
        <time>2013-12-07T09:25:23Z</time>
      </trkpt>
      <trkpt lat="43.02087" lon="-0.09998">
        <ele>476.47</ele>
        <time>2013-12-07T09:25:25Z</time>
      </trkpt>
      <trkpt lat="43.02083" lon="-0.09994">
        <ele>476.95</ele>
        <time>2013-12-07T09:25:29Z</time>
      </trkpt>
      <trkpt lat="43.02082" lon="-0.09993">
        <ele>476.95</ele>
        <time>2013-12-07T09:25:45Z</time>
      </trkpt>
      <trkpt lat="43.02083" lon="-0.09992">
        <ele>476.95</ele>
        <time>2013-12-07T09:26:10Z</time>
      </trkpt>
      <trkpt lat="43.02083" lon="-0.09992">
        <ele>476.95</ele>
        <time>2013-12-07T09:26:14Z</time>
      </trkpt>
      <trkpt lat="43.02089" lon="-0.10002">
        <ele>476.47</ele>
        <time>2013-12-07T09:26:21Z</time>
      </trkpt>
      <trkpt lat="43.02094" lon="-0.10006">
        <ele>475.99</ele>
        <time>2013-12-07T09:26:23Z</time>
      </trkpt>
      <trkpt lat="43.02102" lon="-0.10011">
        <ele>475.51</ele>
        <time>2013-12-07T09:26:25Z</time>
      </trkpt>
      <trkpt lat="43.02114" lon="-0.10018">
        <ele>475.03</ele>
        <time>2013-12-07T09:26:28Z</time>
      </trkpt>
      <trkpt lat="43.02143" lon="-0.10035">
        <ele>475.99</ele>
        <time>2013-12-07T09:26:39Z</time>
      </trkpt>
      <trkpt lat="43.02144" lon="-0.10037">
        <ele>475.99</ele>
        <time>2013-12-07T09:26:40Z</time>
      </trkpt>
      <trkpt lat="43.02141" lon="-0.10068">
        <ele>478.87</ele>
        <time>2013-12-07T09:26:58Z</time>
      </trkpt>
      <trkpt lat="43.0214" lon="-0.10073">
        <ele>478.87</ele>
        <time>2013-12-07T09:27:01Z</time>
      </trkpt>
      <trkpt lat="43.02141" lon="-0.10082">
        <ele>480.32</ele>
        <time>2013-12-07T09:27:07Z</time>
      </trkpt>
      <trkpt lat="43.02139" lon="-0.10098">
        <ele>481.28</ele>
        <time>2013-12-07T09:27:19Z</time>
      </trkpt>
      <trkpt lat="43.02139" lon="-0.10109">
        <ele>482.24</ele>
        <time>2013-12-07T09:27:25Z</time>
      </trkpt>
      <trkpt lat="43.02141" lon="-0.10134">
        <ele>484.64</ele>
        <time>2013-12-07T09:27:39Z</time>
      </trkpt>
      <trkpt lat="43.02142" lon="-0.1014">
        <ele>485.12</ele>
        <time>2013-12-07T09:27:42Z</time>
      </trkpt>
      <trkpt lat="43.02141" lon="-0.10149">
        <ele>486.08</ele>
        <time>2013-12-07T09:27:47Z</time>
      </trkpt>
      <trkpt lat="43.02138" lon="-0.10172">
        <ele>488.01</ele>
        <time>2013-12-07T09:28:00Z</time>
      </trkpt>
      <trkpt lat="43.02138" lon="-0.1018">
        <ele>488.97</ele>
        <time>2013-12-07T09:28:04Z</time>
      </trkpt>
      <trkpt lat="43.02139" lon="-0.10185">
        <ele>489.45</ele>
        <time>2013-12-07T09:28:07Z</time>
      </trkpt>
      <trkpt lat="43.02142" lon="-0.10189">
        <ele>490.41</ele>
        <time>2013-12-07T09:28:11Z</time>
      </trkpt>
      <trkpt lat="43.02146" lon="-0.10192">
        <ele>491.37</ele>
        <time>2013-12-07T09:28:23Z</time>
      </trkpt>
      <trkpt lat="43.02149" lon="-0.1019">
        <ele>490.41</ele>
        <time>2013-12-07T09:28:45Z</time>
      </trkpt>
      <trkpt lat="43.02149" lon="-0.10188">
        <ele>490.41</ele>
        <time>2013-12-07T09:29:17Z</time>
      </trkpt>
      <trkpt lat="43.02148" lon="-0.10189">
        <ele>490.41</ele>
        <time>2013-12-07T09:29:34Z</time>
      </trkpt>
      <trkpt lat="43.02147" lon="-0.1019">
        <ele>489.93</ele>
        <time>2013-12-07T09:29:55Z</time>
      </trkpt>
      <trkpt lat="43.02149" lon="-0.10189">
        <ele>490.41</ele>
        <time>2013-12-07T09:30:10Z</time>
      </trkpt>
      <trkpt lat="43.0215" lon="-0.10189">
        <ele>490.41</ele>
        <time>2013-12-07T09:30:23Z</time>
      </trkpt>
      <trkpt lat="43.02149" lon="-0.1019">
        <ele>490.41</ele>
        <time>2013-12-07T09:30:46Z</time>
      </trkpt>
      <trkpt lat="43.02149" lon="-0.10189">
        <ele>490.41</ele>
        <time>2013-12-07T09:31:07Z</time>
      </trkpt>
      <trkpt lat="43.02154" lon="-0.10191">
        <ele>491.37</ele>
        <time>2013-12-07T09:31:14Z</time>
      </trkpt>
      <trkpt lat="43.0216" lon="-0.1019">
        <ele>492.81</ele>
        <time>2013-12-07T09:31:20Z</time>
      </trkpt>
      <trkpt lat="43.02167" lon="-0.10188">
        <ele>494.74</ele>
        <time>2013-12-07T09:31:26Z</time>
      </trkpt>
      <trkpt lat="43.0217" lon="-0.10199">
        <ele>496.18</ele>
        <time>2013-12-07T09:31:34Z</time>
      </trkpt>
      <trkpt lat="43.02172" lon="-0.1021">
        <ele>497.62</ele>
        <time>2013-12-07T09:31:41Z</time>
      </trkpt>
      <trkpt lat="43.02174" lon="-0.10214">
        <ele>497.62</ele>
        <time>2013-12-07T09:31:44Z</time>
      </trkpt>
      <trkpt lat="43.02179" lon="-0.10216">
        <ele>498.58</ele>
        <time>2013-12-07T09:31:49Z</time>
      </trkpt>
      <trkpt lat="43.0219" lon="-0.10221">
        <ele>499.54</ele>
        <time>2013-12-07T09:31:57Z</time>
      </trkpt>
      <trkpt lat="43.02204" lon="-0.10229">
        <ele>500.02</ele>
        <time>2013-12-07T09:32:07Z</time>
      </trkpt>
      <trkpt lat="43.0222" lon="-0.10241">
        <ele>500.02</ele>
        <time>2013-12-07T09:32:18Z</time>
      </trkpt>
      <trkpt lat="43.02236" lon="-0.10258">
        <ele>499.54</ele>
        <time>2013-12-07T09:32:30Z</time>
      </trkpt>
      <trkpt lat="43.02237" lon="-0.10261">
        <ele>499.54</ele>
        <time>2013-12-07T09:32:31Z</time>
      </trkpt>
      <trkpt lat="43.0225" lon="-0.10276">
        <ele>500.98</ele>
        <time>2013-12-07T09:32:42Z</time>
      </trkpt>
      <trkpt lat="43.02255" lon="-0.10277">
        <ele>501.46</ele>
        <time>2013-12-07T09:32:46Z</time>
      </trkpt>
      <trkpt lat="43.02276" lon="-0.10284">
        <ele>503.39</ele>
        <time>2013-12-07T09:33:01Z</time>
      </trkpt>
      <trkpt lat="43.02283" lon="-0.10298">
        <ele>504.83</ele>
        <time>2013-12-07T09:33:09Z</time>
      </trkpt>
      <trkpt lat="43.02286" lon="-0.10311">
        <ele>506.27</ele>
        <time>2013-12-07T09:33:16Z</time>
      </trkpt>
      <trkpt lat="43.02287" lon="-0.10321">
        <ele>507.23</ele>
        <time>2013-12-07T09:33:21Z</time>
      </trkpt>
      <trkpt lat="43.02287" lon="-0.10327">
        <ele>507.71</ele>
        <time>2013-12-07T09:33:24Z</time>
      </trkpt>
      <trkpt lat="43.02288" lon="-0.10335">
        <ele>508.19</ele>
        <time>2013-12-07T09:33:28Z</time>
      </trkpt>
      <trkpt lat="43.02289" lon="-0.10344">
        <ele>508.67</ele>
        <time>2013-12-07T09:33:32Z</time>
      </trkpt>
      <trkpt lat="43.02285" lon="-0.10378">
        <ele>507.23</ele>
        <time>2013-12-07T09:33:45Z</time>
      </trkpt>
      <trkpt lat="43.02279" lon="-0.10392">
        <ele>505.79</ele>
        <time>2013-12-07T09:33:48Z</time>
      </trkpt>
      <trkpt lat="43.02261" lon="-0.10423">
        <ele>502.43</ele>
        <time>2013-12-07T09:33:52Z</time>
      </trkpt>
      <trkpt lat="43.02252" lon="-0.10443">
        <ele>501.46</ele>
        <time>2013-12-07T09:33:54Z</time>
      </trkpt>
      <trkpt lat="43.02249" lon="-0.10452">
        <ele>501.46</ele>
        <time>2013-12-07T09:33:55Z</time>
      </trkpt>
      <trkpt lat="43.02246" lon="-0.10461">
        <ele>501.46</ele>
        <time>2013-12-07T09:33:56Z</time>
      </trkpt>
      <trkpt lat="43.02244" lon="-0.1047">
        <ele>501.95</ele>
        <time>2013-12-07T09:33:57Z</time>
      </trkpt>
      <trkpt lat="43.02242" lon="-0.10478">
        <ele>501.95</ele>
        <time>2013-12-07T09:33:58Z</time>
      </trkpt>
      <trkpt lat="43.02241" lon="-0.10486">
        <ele>501.95</ele>
        <time>2013-12-07T09:33:59Z</time>
      </trkpt>
      <trkpt lat="43.02239" lon="-0.10493">
        <ele>501.95</ele>
        <time>2013-12-07T09:34:00Z</time>
      </trkpt>
      <trkpt lat="43.02237" lon="-0.105">
        <ele>501.46</ele>
        <time>2013-12-07T09:34:01Z</time>
      </trkpt>
      <trkpt lat="43.02236" lon="-0.10507">
        <ele>501.95</ele>
        <time>2013-12-07T09:34:02Z</time>
      </trkpt>
      <trkpt lat="43.02234" lon="-0.10514">
        <ele>501.95</ele>
        <time>2013-12-07T09:34:03Z</time>
      </trkpt>
      <trkpt lat="43.02229" lon="-0.10574">
        <ele>502.43</ele>
        <time>2013-12-07T09:34:15Z</time>
      </trkpt>
      <trkpt lat="43.02224" lon="-0.10626">
        <ele>502.43</ele>
        <time>2013-12-07T09:34:29Z</time>
      </trkpt>
      <trkpt lat="43.02224" lon="-0.10629">
        <ele>502.43</ele>
        <time>2013-12-07T09:34:30Z</time>
      </trkpt>
      <trkpt lat="43.02224" lon="-0.10632">
        <ele>502.43</ele>
        <time>2013-12-07T09:34:31Z</time>
      </trkpt>
      <trkpt lat="43.02228" lon="-0.10642">
        <ele>500.98</ele>
        <time>2013-12-07T09:34:34Z</time>
      </trkpt>
      <trkpt lat="43.02262" lon="-0.10679">
        <ele>501.46</ele>
        <time>2013-12-07T09:34:47Z</time>
      </trkpt>
      <trkpt lat="43.02295" lon="-0.10719">
        <ele>501.95</ele>
        <time>2013-12-07T09:35:02Z</time>
      </trkpt>
      <trkpt lat="43.02314" lon="-0.10746">
        <ele>500.02</ele>
        <time>2013-12-07T09:35:09Z</time>
      </trkpt>
      <trkpt lat="43.02324" lon="-0.10779">
        <ele>496.66</ele>
        <time>2013-12-07T09:35:13Z</time>
      </trkpt>
      <trkpt lat="43.02329" lon="-0.10826">
        <ele>493.29</ele>
        <time>2013-12-07T09:35:18Z</time>
      </trkpt>
      <trkpt lat="43.0233" lon="-0.10846">
        <ele>491.85</ele>
        <time>2013-12-07T09:35:20Z</time>
      </trkpt>
      <trkpt lat="43.02322" lon="-0.10922">
        <ele>488.97</ele>
        <time>2013-12-07T09:35:28Z</time>
      </trkpt>
      <trkpt lat="43.02322" lon="-0.10941">
        <ele>488.49</ele>
        <time>2013-12-07T09:35:30Z</time>
      </trkpt>
      <trkpt lat="43.02344" lon="-0.10987">
        <ele>487.53</ele>
        <time>2013-12-07T09:35:37Z</time>
      </trkpt>
      <trkpt lat="43.02356" lon="-0.11002">
        <ele>488.01</ele>
        <time>2013-12-07T09:35:40Z</time>
      </trkpt>
      <trkpt lat="43.0238" lon="-0.11027">
        <ele>488.01</ele>
        <time>2013-12-07T09:35:46Z</time>
      </trkpt>
      <trkpt lat="43.02414" lon="-0.11059">
        <ele>491.37</ele>
        <time>2013-12-07T09:35:58Z</time>
      </trkpt>
      <trkpt lat="43.02434" lon="-0.11058">
        <ele>493.77</ele>
        <time>2013-12-07T09:36:10Z</time>
      </trkpt>
      <trkpt lat="43.02444" lon="-0.11035">
        <ele>495.22</ele>
        <time>2013-12-07T09:36:23Z</time>
      </trkpt>
      <trkpt lat="43.02446" lon="-0.11028">
        <ele>496.18</ele>
        <time>2013-12-07T09:36:26Z</time>
      </trkpt>
      <trkpt lat="43.0245" lon="-0.11018">
        <ele>497.14</ele>
        <time>2013-12-07T09:36:34Z</time>
      </trkpt>
      <trkpt lat="43.02457" lon="-0.11003">
        <ele>497.62</ele>
        <time>2013-12-07T09:36:45Z</time>
      </trkpt>
      <trkpt lat="43.02459" lon="-0.10997">
        <ele>498.58</ele>
        <time>2013-12-07T09:36:49Z</time>
      </trkpt>
      <trkpt lat="43.02463" lon="-0.10995">
        <ele>498.58</ele>
        <time>2013-12-07T09:36:52Z</time>
      </trkpt>
      <trkpt lat="43.02465" lon="-0.10993">
        <ele>499.54</ele>
        <time>2013-12-07T09:36:54Z</time>
      </trkpt>
      <trkpt lat="43.02485" lon="-0.10993">
        <ele>500.5</ele>
        <time>2013-12-07T09:37:07Z</time>
      </trkpt>
      <trkpt lat="43.02499" lon="-0.10986">
        <ele>502.43</ele>
        <time>2013-12-07T09:37:20Z</time>
      </trkpt>
      <trkpt lat="43.02502" lon="-0.1098">
        <ele>502.43</ele>
        <time>2013-12-07T09:37:25Z</time>
      </trkpt>
      <trkpt lat="43.02508" lon="-0.10972">
        <ele>502.91</ele>
        <time>2013-12-07T09:37:31Z</time>
      </trkpt>
      <trkpt lat="43.02514" lon="-0.10961">
        <ele>504.35</ele>
        <time>2013-12-07T09:37:39Z</time>
      </trkpt>
      <trkpt lat="43.02514" lon="-0.10957">
        <ele>504.35</ele>
        <time>2013-12-07T09:37:41Z</time>
      </trkpt>
      <trkpt lat="43.02518" lon="-0.10927">
        <ele>506.27</ele>
        <time>2013-12-07T09:37:54Z</time>
      </trkpt>
      <trkpt lat="43.02527" lon="-0.10902">
        <ele>507.23</ele>
        <time>2013-12-07T09:38:08Z</time>
      </trkpt>
      <trkpt lat="43.02551" lon="-0.10879">
        <ele>509.16</ele>
        <time>2013-12-07T09:38:25Z</time>
      </trkpt>
      <trkpt lat="43.02554" lon="-0.10878">
        <ele>509.64</ele>
        <time>2013-12-07T09:38:27Z</time>
      </trkpt>
      <trkpt lat="43.02561" lon="-0.10877">
        <ele>509.64</ele>
        <time>2013-12-07T09:38:32Z</time>
      </trkpt>
      <trkpt lat="43.02581" lon="-0.10869">
        <ele>510.6</ele>
        <time>2013-12-07T09:38:46Z</time>
      </trkpt>
      <trkpt lat="43.026" lon="-0.10864">
        <ele>512.04</ele>
        <time>2013-12-07T09:38:59Z</time>
      </trkpt>
      <trkpt lat="43.02612" lon="-0.10862">
        <ele>513</ele>
        <time>2013-12-07T09:39:11Z</time>
      </trkpt>
      <trkpt lat="43.02613" lon="-0.10861">
        <ele>513</ele>
        <time>2013-12-07T09:39:19Z</time>
      </trkpt>
      <trkpt lat="43.02639" lon="-0.10855">
        <ele>514.44</ele>
        <time>2013-12-07T09:39:35Z</time>
      </trkpt>
      <trkpt lat="43.0266" lon="-0.10851">
        <ele>516.85</ele>
        <time>2013-12-07T09:39:48Z</time>
      </trkpt>
      <trkpt lat="43.02664" lon="-0.10851">
        <ele>517.81</ele>
        <time>2013-12-07T09:39:52Z</time>
      </trkpt>
      <trkpt lat="43.0267" lon="-0.10848">
        <ele>518.77</ele>
        <time>2013-12-07T09:39:58Z</time>
      </trkpt>
      <trkpt lat="43.02687" lon="-0.10826">
        <ele>519.73</ele>
        <time>2013-12-07T09:40:11Z</time>
      </trkpt>
      <trkpt lat="43.0269" lon="-0.10823">
        <ele>520.21</ele>
        <time>2013-12-07T09:40:13Z</time>
      </trkpt>
      <trkpt lat="43.02711" lon="-0.1079">
        <ele>522.13</ele>
        <time>2013-12-07T09:40:27Z</time>
      </trkpt>
      <trkpt lat="43.02727" lon="-0.1076">
        <ele>524.54</ele>
        <time>2013-12-07T09:40:38Z</time>
      </trkpt>
      <trkpt lat="43.02738" lon="-0.1072">
        <ele>526.46</ele>
        <time>2013-12-07T09:40:51Z</time>
      </trkpt>
      <trkpt lat="43.02743" lon="-0.10712">
        <ele>527.42</ele>
        <time>2013-12-07T09:40:55Z</time>
      </trkpt>
      <trkpt lat="43.02748" lon="-0.10702">
        <ele>526.94</ele>
        <time>2013-12-07T09:41:00Z</time>
      </trkpt>
      <trkpt lat="43.02773" lon="-0.10668">
        <ele>530.3</ele>
        <time>2013-12-07T09:41:14Z</time>
      </trkpt>
      <trkpt lat="43.02788" lon="-0.10653">
        <ele>532.23</ele>
        <time>2013-12-07T09:41:26Z</time>
      </trkpt>
      <trkpt lat="43.02806" lon="-0.10637">
        <ele>534.15</ele>
        <time>2013-12-07T09:41:39Z</time>
      </trkpt>
      <trkpt lat="43.02822" lon="-0.10624">
        <ele>534.63</ele>
        <time>2013-12-07T09:41:52Z</time>
      </trkpt>
      <trkpt lat="43.02822" lon="-0.10623">
        <ele>534.63</ele>
        <time>2013-12-07T09:42:05Z</time>
      </trkpt>
      <trkpt lat="43.02824" lon="-0.10622">
        <ele>534.63</ele>
        <time>2013-12-07T09:42:37Z</time>
      </trkpt>
      <trkpt lat="43.02804" lon="-0.10642">
        <ele>532.71</ele>
        <time>2013-12-07T09:42:48Z</time>
      </trkpt>
      <trkpt lat="43.02796" lon="-0.10649">
        <ele>533.19</ele>
        <time>2013-12-07T09:42:55Z</time>
      </trkpt>
      <trkpt lat="43.0279" lon="-0.10654">
        <ele>532.23</ele>
        <time>2013-12-07T09:43:02Z</time>
      </trkpt>
      <trkpt lat="43.02787" lon="-0.10656">
        <ele>532.23</ele>
        <time>2013-12-07T09:43:05Z</time>
      </trkpt>
      <trkpt lat="43.0279" lon="-0.10652">
        <ele>532.23</ele>
        <time>2013-12-07T09:43:09Z</time>
      </trkpt>
      <trkpt lat="43.02814" lon="-0.10632">
        <ele>534.15</ele>
        <time>2013-12-07T09:43:23Z</time>
      </trkpt>
      <trkpt lat="43.02822" lon="-0.10626">
        <ele>534.63</ele>
        <time>2013-12-07T09:43:28Z</time>
      </trkpt>
      <trkpt lat="43.0283" lon="-0.10617">
        <ele>534.63</ele>
        <time>2013-12-07T09:43:35Z</time>
      </trkpt>
      <trkpt lat="43.02847" lon="-0.106">
        <ele>537.03</ele>
        <time>2013-12-07T09:43:48Z</time>
      </trkpt>
      <trkpt lat="43.02853" lon="-0.10592">
        <ele>537.51</ele>
        <time>2013-12-07T09:43:54Z</time>
      </trkpt>
      <trkpt lat="43.02858" lon="-0.10586">
        <ele>537.99</ele>
        <time>2013-12-07T09:43:58Z</time>
      </trkpt>
      <trkpt lat="43.02874" lon="-0.10563">
        <ele>538.96</ele>
        <time>2013-12-07T09:44:12Z</time>
      </trkpt>
      <trkpt lat="43.02888" lon="-0.10528">
        <ele>540.4</ele>
        <time>2013-12-07T09:44:29Z</time>
      </trkpt>
      <trkpt lat="43.02888" lon="-0.10527">
        <ele>540.4</ele>
        <time>2013-12-07T09:44:42Z</time>
      </trkpt>
      <trkpt lat="43.02889" lon="-0.10526">
        <ele>540.4</ele>
        <time>2013-12-07T09:45:13Z</time>
      </trkpt>
      <trkpt lat="43.0289" lon="-0.10525">
        <ele>540.88</ele>
        <time>2013-12-07T09:45:38Z</time>
      </trkpt>
      <trkpt lat="43.02889" lon="-0.10525">
        <ele>540.4</ele>
        <time>2013-12-07T09:45:57Z</time>
      </trkpt>
      <trkpt lat="43.02889" lon="-0.10526">
        <ele>539.92</ele>
        <time>2013-12-07T09:46:19Z</time>
      </trkpt>
      <trkpt lat="43.02888" lon="-0.10526">
        <ele>540.4</ele>
        <time>2013-12-07T09:46:51Z</time>
      </trkpt>
      <trkpt lat="43.02888" lon="-0.10525">
        <ele>540.4</ele>
        <time>2013-12-07T09:47:20Z</time>
      </trkpt>
      <trkpt lat="43.02888" lon="-0.10526">
        <ele>540.88</ele>
        <time>2013-12-07T09:47:47Z</time>
      </trkpt>
      <trkpt lat="43.02888" lon="-0.10526">
        <ele>541.84</ele>
        <time>2013-12-07T09:47:57Z</time>
      </trkpt>
      <trkpt lat="43.02891" lon="-0.10531">
        <ele>540.88</ele>
        <time>2013-12-07T09:48:02Z</time>
      </trkpt>
      <trkpt lat="43.02883" lon="-0.10559">
        <ele>542.32</ele>
        <time>2013-12-07T09:48:17Z</time>
      </trkpt>
      <trkpt lat="43.02879" lon="-0.10588">
        <ele>544.72</ele>
        <time>2013-12-07T09:48:31Z</time>
      </trkpt>
      <trkpt lat="43.02872" lon="-0.10623">
        <ele>546.17</ele>
        <time>2013-12-07T09:48:47Z</time>
      </trkpt>
      <trkpt lat="43.02858" lon="-0.10656">
        <ele>548.09</ele>
        <time>2013-12-07T09:49:03Z</time>
      </trkpt>
      <trkpt lat="43.02851" lon="-0.10668">
        <ele>549.05</ele>
        <time>2013-12-07T09:49:11Z</time>
      </trkpt>
      <trkpt lat="43.02848" lon="-0.1068">
        <ele>549.53</ele>
        <time>2013-12-07T09:49:24Z</time>
      </trkpt>
      <trkpt lat="43.02847" lon="-0.10681">
        <ele>549.53</ele>
        <time>2013-12-07T09:49:42Z</time>
      </trkpt>
      <trkpt lat="43.02845" lon="-0.10684">
        <ele>550.01</ele>
        <time>2013-12-07T09:49:45Z</time>
      </trkpt>
      <trkpt lat="43.02834" lon="-0.10703">
        <ele>550.49</ele>
        <time>2013-12-07T09:49:56Z</time>
      </trkpt>
      <trkpt lat="43.02825" lon="-0.10738">
        <ele>551.45</ele>
        <time>2013-12-07T09:50:12Z</time>
      </trkpt>
      <trkpt lat="43.02831" lon="-0.1078">
        <ele>554.34</ele>
        <time>2013-12-07T09:50:29Z</time>
      </trkpt>
      <trkpt lat="43.02834" lon="-0.10817">
        <ele>556.74</ele>
        <time>2013-12-07T09:50:44Z</time>
      </trkpt>
      <trkpt lat="43.0284" lon="-0.10853">
        <ele>559.14</ele>
        <time>2013-12-07T09:51:00Z</time>
      </trkpt>
      <trkpt lat="43.02846" lon="-0.10888">
        <ele>561.07</ele>
        <time>2013-12-07T09:51:16Z</time>
      </trkpt>
      <trkpt lat="43.02847" lon="-0.10915">
        <ele>562.03</ele>
        <time>2013-12-07T09:51:28Z</time>
      </trkpt>
      <trkpt lat="43.02854" lon="-0.10951">
        <ele>564.91</ele>
        <time>2013-12-07T09:51:45Z</time>
      </trkpt>
      <trkpt lat="43.02859" lon="-0.10988">
        <ele>567.32</ele>
        <time>2013-12-07T09:51:59Z</time>
      </trkpt>
      <trkpt lat="43.02871" lon="-0.11018">
        <ele>569.24</ele>
        <time>2013-12-07T09:52:14Z</time>
      </trkpt>
      <trkpt lat="43.02889" lon="-0.11029">
        <ele>570.68</ele>
        <time>2013-12-07T09:52:26Z</time>
      </trkpt>
      <trkpt lat="43.02889" lon="-0.11029">
        <ele>570.68</ele>
        <time>2013-12-07T09:52:28Z</time>
      </trkpt>
      <trkpt lat="43.02889" lon="-0.11026">
        <ele>570.68</ele>
        <time>2013-12-07T09:52:42Z</time>
      </trkpt>
      <trkpt lat="43.02889" lon="-0.11025">
        <ele>570.68</ele>
        <time>2013-12-07T09:53:10Z</time>
      </trkpt>
      <trkpt lat="43.02889" lon="-0.11025">
        <ele>570.68</ele>
        <time>2013-12-07T09:53:14Z</time>
      </trkpt>
      <trkpt lat="43.02891" lon="-0.11027">
        <ele>571.16</ele>
        <time>2013-12-07T09:53:17Z</time>
      </trkpt>
      <trkpt lat="43.02892" lon="-0.11032">
        <ele>571.16</ele>
        <time>2013-12-07T09:53:20Z</time>
      </trkpt>
      <trkpt lat="43.02898" lon="-0.11035">
        <ele>571.64</ele>
        <time>2013-12-07T09:53:24Z</time>
      </trkpt>
      <trkpt lat="43.02916" lon="-0.11047">
        <ele>574.04</ele>
        <time>2013-12-07T09:53:35Z</time>
      </trkpt>
      <trkpt lat="43.02925" lon="-0.11057">
        <ele>575.01</ele>
        <time>2013-12-07T09:53:42Z</time>
      </trkpt>
      <trkpt lat="43.02934" lon="-0.11092">
        <ele>576.93</ele>
        <time>2013-12-07T09:53:57Z</time>
      </trkpt>
      <trkpt lat="43.02933" lon="-0.11097">
        <ele>576.93</ele>
        <time>2013-12-07T09:53:59Z</time>
      </trkpt>
      <trkpt lat="43.02922" lon="-0.1111">
        <ele>577.89</ele>
        <time>2013-12-07T09:54:13Z</time>
      </trkpt>
      <trkpt lat="43.02921" lon="-0.1111">
        <ele>578.37</ele>
        <time>2013-12-07T09:54:15Z</time>
      </trkpt>
      <trkpt lat="43.02915" lon="-0.11111">
        <ele>578.37</ele>
        <time>2013-12-07T09:54:20Z</time>
      </trkpt>
      <trkpt lat="43.02901" lon="-0.1111">
        <ele>579.81</ele>
        <time>2013-12-07T09:54:29Z</time>
      </trkpt>
      <trkpt lat="43.02897" lon="-0.11112">
        <ele>579.81</ele>
        <time>2013-12-07T09:54:32Z</time>
      </trkpt>
      <trkpt lat="43.02893" lon="-0.11121">
        <ele>580.29</ele>
        <time>2013-12-07T09:54:37Z</time>
      </trkpt>
      <trkpt lat="43.02901" lon="-0.11154">
        <ele>582.7</ele>
        <time>2013-12-07T09:54:53Z</time>
      </trkpt>
      <trkpt lat="43.02903" lon="-0.11162">
        <ele>583.18</ele>
        <time>2013-12-07T09:54:57Z</time>
      </trkpt>
      <trkpt lat="43.02897" lon="-0.11154">
        <ele>583.18</ele>
        <time>2013-12-07T09:55:04Z</time>
      </trkpt>
      <trkpt lat="43.02895" lon="-0.1115">
        <ele>582.7</ele>
        <time>2013-12-07T09:55:06Z</time>
      </trkpt>
      <trkpt lat="43.02901" lon="-0.1116">
        <ele>583.18</ele>
        <time>2013-12-07T09:55:16Z</time>
      </trkpt>
      <trkpt lat="43.02903" lon="-0.11167">
        <ele>583.18</ele>
        <time>2013-12-07T09:55:19Z</time>
      </trkpt>
      <trkpt lat="43.02906" lon="-0.11209">
        <ele>585.58</ele>
        <time>2013-12-07T09:55:36Z</time>
      </trkpt>
      <trkpt lat="43.02906" lon="-0.11244">
        <ele>587.5</ele>
        <time>2013-12-07T09:55:49Z</time>
      </trkpt>
      <trkpt lat="43.02909" lon="-0.11284">
        <ele>589.91</ele>
        <time>2013-12-07T09:56:04Z</time>
      </trkpt>
      <trkpt lat="43.02916" lon="-0.11322">
        <ele>591.83</ele>
        <time>2013-12-07T09:56:20Z</time>
      </trkpt>
      <trkpt lat="43.02918" lon="-0.11349">
        <ele>593.75</ele>
        <time>2013-12-07T09:56:32Z</time>
      </trkpt>
      <trkpt lat="43.0292" lon="-0.11359">
        <ele>594.23</ele>
        <time>2013-12-07T09:56:37Z</time>
      </trkpt>
      <trkpt lat="43.0292" lon="-0.11393">
        <ele>596.15</ele>
        <time>2013-12-07T09:56:53Z</time>
      </trkpt>
      <trkpt lat="43.0292" lon="-0.11425">
        <ele>598.08</ele>
        <time>2013-12-07T09:57:09Z</time>
      </trkpt>
      <trkpt lat="43.02919" lon="-0.1143">
        <ele>599.04</ele>
        <time>2013-12-07T09:57:12Z</time>
      </trkpt>
      <trkpt lat="43.02919" lon="-0.11444">
        <ele>599.52</ele>
        <time>2013-12-07T09:57:19Z</time>
      </trkpt>
      <trkpt lat="43.02916" lon="-0.11457">
        <ele>600</ele>
        <time>2013-12-07T09:57:26Z</time>
      </trkpt>
      <trkpt lat="43.02912" lon="-0.11479">
        <ele>601.44</ele>
        <time>2013-12-07T09:57:37Z</time>
      </trkpt>
      <trkpt lat="43.02908" lon="-0.11497">
        <ele>602.88</ele>
        <time>2013-12-07T09:57:45Z</time>
      </trkpt>
      <trkpt lat="43.02907" lon="-0.11505">
        <ele>603.36</ele>
        <time>2013-12-07T09:57:50Z</time>
      </trkpt>
      <trkpt lat="43.02906" lon="-0.11524">
        <ele>604.81</ele>
        <time>2013-12-07T09:58:04Z</time>
      </trkpt>
      <trkpt lat="43.02907" lon="-0.11531">
        <ele>604.81</ele>
        <time>2013-12-07T09:58:09Z</time>
      </trkpt>
      <trkpt lat="43.02906" lon="-0.11522">
        <ele>604.33</ele>
        <time>2013-12-07T09:58:13Z</time>
      </trkpt>
      <trkpt lat="43.02907" lon="-0.11517">
        <ele>604.33</ele>
        <time>2013-12-07T09:58:16Z</time>
      </trkpt>
      <trkpt lat="43.02906" lon="-0.11534">
        <ele>605.29</ele>
        <time>2013-12-07T09:58:25Z</time>
      </trkpt>
      <trkpt lat="43.02906" lon="-0.11538">
        <ele>605.29</ele>
        <time>2013-12-07T09:58:27Z</time>
      </trkpt>
      <trkpt lat="43.02906" lon="-0.11545">
        <ele>606.25</ele>
        <time>2013-12-07T09:58:31Z</time>
      </trkpt>
      <trkpt lat="43.02905" lon="-0.11558">
        <ele>606.73</ele>
        <time>2013-12-07T09:58:42Z</time>
      </trkpt>
      <trkpt lat="43.02904" lon="-0.11586">
        <ele>608.65</ele>
        <time>2013-12-07T09:58:55Z</time>
      </trkpt>
      <trkpt lat="43.02901" lon="-0.11615">
        <ele>610.09</ele>
        <time>2013-12-07T09:59:09Z</time>
      </trkpt>
      <trkpt lat="43.02896" lon="-0.11643">
        <ele>611.54</ele>
        <time>2013-12-07T09:59:22Z</time>
      </trkpt>
      <trkpt lat="43.02891" lon="-0.11676">
        <ele>613.94</ele>
        <time>2013-12-07T09:59:38Z</time>
      </trkpt>
      <trkpt lat="43.02887" lon="-0.11703">
        <ele>615.38</ele>
        <time>2013-12-07T09:59:52Z</time>
      </trkpt>
      <trkpt lat="43.02882" lon="-0.11726">
        <ele>617.3</ele>
        <time>2013-12-07T10:00:06Z</time>
      </trkpt>
      <trkpt lat="43.02881" lon="-0.11734">
        <ele>617.3</ele>
        <time>2013-12-07T10:00:10Z</time>
      </trkpt>
      <trkpt lat="43.0288" lon="-0.11747">
        <ele>618.26</ele>
        <time>2013-12-07T10:00:16Z</time>
      </trkpt>
      <trkpt lat="43.0288" lon="-0.11757">
        <ele>618.75</ele>
        <time>2013-12-07T10:00:21Z</time>
      </trkpt>
      <trkpt lat="43.02881" lon="-0.11797">
        <ele>620.67</ele>
        <time>2013-12-07T10:00:39Z</time>
      </trkpt>
      <trkpt lat="43.02879" lon="-0.11815">
        <ele>622.11</ele>
        <time>2013-12-07T10:00:48Z</time>
      </trkpt>
      <trkpt lat="43.02875" lon="-0.11838">
        <ele>622.59</ele>
        <time>2013-12-07T10:00:58Z</time>
      </trkpt>
      <trkpt lat="43.02872" lon="-0.11877">
        <ele>624.51</ele>
        <time>2013-12-07T10:01:13Z</time>
      </trkpt>
      <trkpt lat="43.02884" lon="-0.11913">
        <ele>626.44</ele>
        <time>2013-12-07T10:01:30Z</time>
      </trkpt>
      <trkpt lat="43.02897" lon="-0.11943">
        <ele>628.84</ele>
        <time>2013-12-07T10:01:44Z</time>
      </trkpt>
      <trkpt lat="43.029" lon="-0.11954">
        <ele>629.32</ele>
        <time>2013-12-07T10:01:49Z</time>
      </trkpt>
      <trkpt lat="43.02911" lon="-0.11952">
        <ele>631.24</ele>
        <time>2013-12-07T10:01:59Z</time>
      </trkpt>
      <trkpt lat="43.02913" lon="-0.11949">
        <ele>631.72</ele>
        <time>2013-12-07T10:02:01Z</time>
      </trkpt>
      <trkpt lat="43.02917" lon="-0.11923">
        <ele>635.09</ele>
        <time>2013-12-07T10:02:13Z</time>
      </trkpt>
      <trkpt lat="43.02921" lon="-0.11915">
        <ele>636.05</ele>
        <time>2013-12-07T10:02:17Z</time>
      </trkpt>
      <trkpt lat="43.02931" lon="-0.1188">
        <ele>638.93</ele>
        <time>2013-12-07T10:02:32Z</time>
      </trkpt>
      <trkpt lat="43.02932" lon="-0.11878">
        <ele>638.45</ele>
        <time>2013-12-07T10:02:45Z</time>
      </trkpt>
      <trkpt lat="43.02932" lon="-0.11879">
        <ele>638.93</ele>
        <time>2013-12-07T10:03:08Z</time>
      </trkpt>
      <trkpt lat="43.02931" lon="-0.1188">
        <ele>638.93</ele>
        <time>2013-12-07T10:03:34Z</time>
      </trkpt>
      <trkpt lat="43.02931" lon="-0.1188">
        <ele>638.93</ele>
        <time>2013-12-07T10:03:56Z</time>
      </trkpt>
      <trkpt lat="43.02933" lon="-0.1188">
        <ele>637.97</ele>
        <time>2013-12-07T10:04:13Z</time>
      </trkpt>
      <trkpt lat="43.02933" lon="-0.11879">
        <ele>637.97</ele>
        <time>2013-12-07T10:04:24Z</time>
      </trkpt>
      <trkpt lat="43.02932" lon="-0.11877">
        <ele>638.45</ele>
        <time>2013-12-07T10:04:32Z</time>
      </trkpt>
      <trkpt lat="43.02932" lon="-0.11878">
        <ele>638.93</ele>
        <time>2013-12-07T10:04:46Z</time>
      </trkpt>
      <trkpt lat="43.02932" lon="-0.11878">
        <ele>638.93</ele>
        <time>2013-12-07T10:04:48Z</time>
      </trkpt>
      <trkpt lat="43.02934" lon="-0.11876">
        <ele>638.93</ele>
        <time>2013-12-07T10:04:51Z</time>
      </trkpt>
      <trkpt lat="43.02934" lon="-0.11866">
        <ele>638.45</ele>
        <time>2013-12-07T10:04:55Z</time>
      </trkpt>
      <trkpt lat="43.02944" lon="-0.1184">
        <ele>637.01</ele>
        <time>2013-12-07T10:05:02Z</time>
      </trkpt>
      <trkpt lat="43.02956" lon="-0.11812">
        <ele>634.13</ele>
        <time>2013-12-07T10:05:07Z</time>
      </trkpt>
      <trkpt lat="43.0296" lon="-0.11798">
        <ele>632.2</ele>
        <time>2013-12-07T10:05:09Z</time>
      </trkpt>
      <trkpt lat="43.02961" lon="-0.1176">
        <ele>629.32</ele>
        <time>2013-12-07T10:05:13Z</time>
      </trkpt>
      <trkpt lat="43.02964" lon="-0.11742">
        <ele>629.8</ele>
        <time>2013-12-07T10:05:15Z</time>
      </trkpt>
      <trkpt lat="43.02983" lon="-0.11675">
        <ele>630.28</ele>
        <time>2013-12-07T10:05:26Z</time>
      </trkpt>
      <trkpt lat="43.02987" lon="-0.11644">
        <ele>630.76</ele>
        <time>2013-12-07T10:05:33Z</time>
      </trkpt>
      <trkpt lat="43.02987" lon="-0.11639">
        <ele>630.76</ele>
        <time>2013-12-07T10:05:35Z</time>
      </trkpt>
      <trkpt lat="43.02995" lon="-0.11596">
        <ele>631.24</ele>
        <time>2013-12-07T10:05:47Z</time>
      </trkpt>
      <trkpt lat="43.03006" lon="-0.1157">
        <ele>631.72</ele>
        <time>2013-12-07T10:05:55Z</time>
      </trkpt>
      <trkpt lat="43.03016" lon="-0.11534">
        <ele>632.2</ele>
        <time>2013-12-07T10:06:06Z</time>
      </trkpt>
      <trkpt lat="43.03021" lon="-0.11518">
        <ele>632.68</ele>
        <time>2013-12-07T10:06:11Z</time>
      </trkpt>
      <trkpt lat="43.03029" lon="-0.11488">
        <ele>633.65</ele>
        <time>2013-12-07T10:06:20Z</time>
      </trkpt>
      <trkpt lat="43.03041" lon="-0.11433">
        <ele>634.13</ele>
        <time>2013-12-07T10:06:34Z</time>
      </trkpt>
      <trkpt lat="43.03043" lon="-0.11423">
        <ele>634.61</ele>
        <time>2013-12-07T10:06:37Z</time>
      </trkpt>
      <trkpt lat="43.03051" lon="-0.11374">
        <ele>634.61</ele>
        <time>2013-12-07T10:06:49Z</time>
      </trkpt>
      <trkpt lat="43.03058" lon="-0.11346">
        <ele>634.13</ele>
        <time>2013-12-07T10:06:55Z</time>
      </trkpt>
      <trkpt lat="43.03059" lon="-0.11333">
        <ele>633.65</ele>
        <time>2013-12-07T10:06:58Z</time>
      </trkpt>
      <trkpt lat="43.03067" lon="-0.11295">
        <ele>634.13</ele>
        <time>2013-12-07T10:07:09Z</time>
      </trkpt>
      <trkpt lat="43.03078" lon="-0.1126">
        <ele>634.61</ele>
        <time>2013-12-07T10:07:20Z</time>
      </trkpt>
      <trkpt lat="43.0308" lon="-0.11256">
        <ele>634.13</ele>
        <time>2013-12-07T10:07:21Z</time>
      </trkpt>
      <trkpt lat="43.03094" lon="-0.11229">
        <ele>630.76</ele>
        <time>2013-12-07T10:07:26Z</time>
      </trkpt>
      <trkpt lat="43.03099" lon="-0.11222">
        <ele>629.8</ele>
        <time>2013-12-07T10:07:28Z</time>
      </trkpt>
      <trkpt lat="43.03101" lon="-0.11219">
        <ele>629.32</ele>
        <time>2013-12-07T10:07:29Z</time>
      </trkpt>
      <trkpt lat="43.03105" lon="-0.11202">
        <ele>628.84</ele>
        <time>2013-12-07T10:07:42Z</time>
      </trkpt>
      <trkpt lat="43.03104" lon="-0.11192">
        <ele>628.36</ele>
        <time>2013-12-07T10:08:13Z</time>
      </trkpt>
      <trkpt lat="43.0309" lon="-0.11161">
        <ele>625.47</ele>
        <time>2013-12-07T10:08:23Z</time>
      </trkpt>
      <trkpt lat="43.03077" lon="-0.11125">
        <ele>623.07</ele>
        <time>2013-12-07T10:08:30Z</time>
      </trkpt>
      <trkpt lat="43.03072" lon="-0.11098">
        <ele>621.63</ele>
        <time>2013-12-07T10:08:34Z</time>
      </trkpt>
      <trkpt lat="43.03073" lon="-0.1106">
        <ele>619.23</ele>
        <time>2013-12-07T10:08:41Z</time>
      </trkpt>
      <trkpt lat="43.03073" lon="-0.11048">
        <ele>618.75</ele>
        <time>2013-12-07T10:08:43Z</time>
      </trkpt>
      <trkpt lat="43.03074" lon="-0.11042">
        <ele>617.78</ele>
        <time>2013-12-07T10:08:44Z</time>
      </trkpt>
      <trkpt lat="43.03073" lon="-0.11016">
        <ele>616.34</ele>
        <time>2013-12-07T10:08:48Z</time>
      </trkpt>
      <trkpt lat="43.0307" lon="-0.11">
        <ele>613.46</ele>
        <time>2013-12-07T10:08:52Z</time>
      </trkpt>
      <trkpt lat="43.03071" lon="-0.10987">
        <ele>612.02</ele>
        <time>2013-12-07T10:08:59Z</time>
      </trkpt>
      <trkpt lat="43.0307" lon="-0.10951">
        <ele>608.17</ele>
        <time>2013-12-07T10:09:04Z</time>
      </trkpt>
      <trkpt lat="43.03069" lon="-0.10943">
        <ele>607.21</ele>
        <time>2013-12-07T10:09:05Z</time>
      </trkpt>
      <trkpt lat="43.03061" lon="-0.10905">
        <ele>603.85</ele>
        <time>2013-12-07T10:09:10Z</time>
      </trkpt>
      <trkpt lat="43.03063" lon="-0.10855">
        <ele>599.52</ele>
        <time>2013-12-07T10:09:16Z</time>
      </trkpt>
      <trkpt lat="43.03068" lon="-0.10829">
        <ele>598.08</ele>
        <time>2013-12-07T10:09:19Z</time>
      </trkpt>
      <trkpt lat="43.03077" lon="-0.10772">
        <ele>594.23</ele>
        <time>2013-12-07T10:09:27Z</time>
      </trkpt>
      <trkpt lat="43.03082" lon="-0.10747">
        <ele>590.39</ele>
        <time>2013-12-07T10:09:32Z</time>
      </trkpt>
      <trkpt lat="43.03069" lon="-0.10729">
        <ele>587.02</ele>
        <time>2013-12-07T10:09:37Z</time>
      </trkpt>
      <trkpt lat="43.03061" lon="-0.10696">
        <ele>583.18</ele>
        <time>2013-12-07T10:09:43Z</time>
      </trkpt>
      <trkpt lat="43.03061" lon="-0.10692">
        <ele>582.7</ele>
        <time>2013-12-07T10:09:44Z</time>
      </trkpt>
      <trkpt lat="43.03061" lon="-0.10689">
        <ele>583.18</ele>
        <time>2013-12-07T10:09:45Z</time>
      </trkpt>
      <trkpt lat="43.03065" lon="-0.10687">
        <ele>583.18</ele>
        <time>2013-12-07T10:09:59Z</time>
      </trkpt>
      <trkpt lat="43.03065" lon="-0.10687">
        <ele>581.73</ele>
        <time>2013-12-07T10:10:10Z</time>
      </trkpt>
      <trkpt lat="43.03065" lon="-0.10686">
        <ele>582.7</ele>
        <time>2013-12-07T10:10:38Z</time>
      </trkpt>
      <trkpt lat="43.03066" lon="-0.10687">
        <ele>582.7</ele>
        <time>2013-12-07T10:11:02Z</time>
      </trkpt>
      <trkpt lat="43.03066" lon="-0.10687">
        <ele>582.7</ele>
        <time>2013-12-07T10:11:26Z</time>
      </trkpt>
      <trkpt lat="43.03065" lon="-0.10688">
        <ele>582.7</ele>
        <time>2013-12-07T10:11:54Z</time>
      </trkpt>
      <trkpt lat="43.03065" lon="-0.10687">
        <ele>583.18</ele>
        <time>2013-12-07T10:12:29Z</time>
      </trkpt>
      <trkpt lat="43.03065" lon="-0.10687">
        <ele>582.7</ele>
        <time>2013-12-07T10:12:51Z</time>
      </trkpt>
      <trkpt lat="43.03065" lon="-0.10685">
        <ele>583.18</ele>
        <time>2013-12-07T10:13:14Z</time>
      </trkpt>
      <trkpt lat="43.03064" lon="-0.10685">
        <ele>583.18</ele>
        <time>2013-12-07T10:13:46Z</time>
      </trkpt>
      <trkpt lat="43.03068" lon="-0.10677">
        <ele>583.18</ele>
        <time>2013-12-07T10:13:50Z</time>
      </trkpt>
      <trkpt lat="43.03074" lon="-0.10662">
        <ele>581.25</ele>
        <time>2013-12-07T10:13:53Z</time>
      </trkpt>
      <trkpt lat="43.03076" lon="-0.10657">
        <ele>580.29</ele>
        <time>2013-12-07T10:13:54Z</time>
      </trkpt>
      <trkpt lat="43.03078" lon="-0.10644">
        <ele>579.81</ele>
        <time>2013-12-07T10:13:56Z</time>
      </trkpt>
      <trkpt lat="43.03079" lon="-0.10637">
        <ele>579.33</ele>
        <time>2013-12-07T10:13:57Z</time>
      </trkpt>
      <trkpt lat="43.03082" lon="-0.10615">
        <ele>577.89</ele>
        <time>2013-12-07T10:14:00Z</time>
      </trkpt>
      <trkpt lat="43.03093" lon="-0.10592">
        <ele>576.45</ele>
        <time>2013-12-07T10:14:03Z</time>
      </trkpt>
      <trkpt lat="43.03102" lon="-0.10587">
        <ele>577.89</ele>
        <time>2013-12-07T10:14:05Z</time>
      </trkpt>
      <trkpt lat="43.03115" lon="-0.10584">
        <ele>579.81</ele>
        <time>2013-12-07T10:14:09Z</time>
      </trkpt>
      <trkpt lat="43.03125" lon="-0.10576">
        <ele>580.77</ele>
        <time>2013-12-07T10:14:13Z</time>
      </trkpt>
      <trkpt lat="43.03148" lon="-0.10549">
        <ele>583.18</ele>
        <time>2013-12-07T10:14:24Z</time>
      </trkpt>
      <trkpt lat="43.03157" lon="-0.10529">
        <ele>585.1</ele>
        <time>2013-12-07T10:14:32Z</time>
      </trkpt>
      <trkpt lat="43.03175" lon="-0.10489">
        <ele>584.62</ele>
        <time>2013-12-07T10:14:44Z</time>
      </trkpt>
      <trkpt lat="43.03197" lon="-0.10468">
        <ele>586.54</ele>
        <time>2013-12-07T10:14:55Z</time>
      </trkpt>
      <trkpt lat="43.03209" lon="-0.1046">
        <ele>585.58</ele>
        <time>2013-12-07T10:14:59Z</time>
      </trkpt>
      <trkpt lat="43.03215" lon="-0.10444">
        <ele>585.58</ele>
        <time>2013-12-07T10:15:05Z</time>
      </trkpt>
      <trkpt lat="43.03219" lon="-0.10441">
        <ele>586.06</ele>
        <time>2013-12-07T10:15:20Z</time>
      </trkpt>
      <trkpt lat="43.03218" lon="-0.10441">
        <ele>586.06</ele>
        <time>2013-12-07T10:15:25Z</time>
      </trkpt>
      <trkpt lat="43.03219" lon="-0.10438">
        <ele>586.54</ele>
        <time>2013-12-07T10:15:29Z</time>
      </trkpt>
      <trkpt lat="43.03229" lon="-0.10415">
        <ele>590.39</ele>
        <time>2013-12-07T10:15:36Z</time>
      </trkpt>
      <trkpt lat="43.03244" lon="-0.10398">
        <ele>593.75</ele>
        <time>2013-12-07T10:15:43Z</time>
      </trkpt>
      <trkpt lat="43.03247" lon="-0.10396">
        <ele>593.75</ele>
        <time>2013-12-07T10:15:44Z</time>
      </trkpt>
      <trkpt lat="43.03276" lon="-0.10395">
        <ele>597.12</ele>
        <time>2013-12-07T10:15:53Z</time>
      </trkpt>
      <trkpt lat="43.03289" lon="-0.10397">
        <ele>596.15</ele>
        <time>2013-12-07T10:15:58Z</time>
      </trkpt>
      <trkpt lat="43.03307" lon="-0.10393">
        <ele>596.15</ele>
        <time>2013-12-07T10:16:09Z</time>
      </trkpt>
      <trkpt lat="43.03307" lon="-0.1039">
        <ele>596.15</ele>
        <time>2013-12-07T10:16:22Z</time>
      </trkpt>
      <trkpt lat="43.03307" lon="-0.10392">
        <ele>596.15</ele>
        <time>2013-12-07T10:16:49Z</time>
      </trkpt>
      <trkpt lat="43.03307" lon="-0.10392">
        <ele>596.15</ele>
        <time>2013-12-07T10:17:12Z</time>
      </trkpt>
      <trkpt lat="43.03307" lon="-0.10391">
        <ele>596.15</ele>
        <time>2013-12-07T10:17:31Z</time>
      </trkpt>
      <trkpt lat="43.03308" lon="-0.10389">
        <ele>596.15</ele>
        <time>2013-12-07T10:18:00Z</time>
      </trkpt>
      <trkpt lat="43.03309" lon="-0.10389">
        <ele>595.67</ele>
        <time>2013-12-07T10:18:31Z</time>
      </trkpt>
      <trkpt lat="43.0331" lon="-0.10388">
        <ele>596.15</ele>
        <time>2013-12-07T10:19:04Z</time>
      </trkpt>
      <trkpt lat="43.03308" lon="-0.10387">
        <ele>596.15</ele>
        <time>2013-12-07T10:19:32Z</time>
      </trkpt>
      <trkpt lat="43.03306" lon="-0.10387">
        <ele>596.64</ele>
        <time>2013-12-07T10:20:03Z</time>
      </trkpt>
      <trkpt lat="43.03307" lon="-0.10387">
        <ele>597.12</ele>
        <time>2013-12-07T10:20:29Z</time>
      </trkpt>
      <trkpt lat="43.03309" lon="-0.10389">
        <ele>597.6</ele>
        <time>2013-12-07T10:20:47Z</time>
      </trkpt>
      <trkpt lat="43.03309" lon="-0.1039">
        <ele>597.12</ele>
        <time>2013-12-07T10:21:17Z</time>
      </trkpt>
      <trkpt lat="43.03309" lon="-0.10391">
        <ele>597.6</ele>
        <time>2013-12-07T10:21:39Z</time>
      </trkpt>
      <trkpt lat="43.0331" lon="-0.10392">
        <ele>597.12</ele>
        <time>2013-12-07T10:21:57Z</time>
      </trkpt>
      <trkpt lat="43.03309" lon="-0.10392">
        <ele>597.6</ele>
        <time>2013-12-07T10:22:27Z</time>
      </trkpt>
      <trkpt lat="43.03309" lon="-0.10393">
        <ele>597.6</ele>
        <time>2013-12-07T10:22:50Z</time>
      </trkpt>
      <trkpt lat="43.03308" lon="-0.10393">
        <ele>597.6</ele>
        <time>2013-12-07T10:23:03Z</time>
      </trkpt>
      <trkpt lat="43.03303" lon="-0.10388">
        <ele>595.19</ele>
        <time>2013-12-07T10:23:07Z</time>
      </trkpt>
      <trkpt lat="43.03291" lon="-0.1038">
        <ele>590.39</ele>
        <time>2013-12-07T10:23:13Z</time>
      </trkpt>
      <trkpt lat="43.03283" lon="-0.10367">
        <ele>587.02</ele>
        <time>2013-12-07T10:23:19Z</time>
      </trkpt>
      <trkpt lat="43.03281" lon="-0.10364">
        <ele>587.02</ele>
        <time>2013-12-07T10:23:20Z</time>
      </trkpt>
      <trkpt lat="43.03277" lon="-0.1036">
        <ele>585.58</ele>
        <time>2013-12-07T10:23:22Z</time>
      </trkpt>
      <trkpt lat="43.03272" lon="-0.10357">
        <ele>584.14</ele>
        <time>2013-12-07T10:23:24Z</time>
      </trkpt>
      <trkpt lat="43.03256" lon="-0.10344">
        <ele>581.25</ele>
        <time>2013-12-07T10:23:30Z</time>
      </trkpt>
      <trkpt lat="43.0324" lon="-0.10335">
        <ele>577.89</ele>
        <time>2013-12-07T10:23:35Z</time>
      </trkpt>
      <trkpt lat="43.03238" lon="-0.10334">
        <ele>577.89</ele>
        <time>2013-12-07T10:23:36Z</time>
      </trkpt>
      <trkpt lat="43.0323" lon="-0.10331">
        <ele>576.45</ele>
        <time>2013-12-07T10:23:39Z</time>
      </trkpt>
      <trkpt lat="43.03224" lon="-0.10327">
        <ele>575.49</ele>
        <time>2013-12-07T10:23:41Z</time>
      </trkpt>
      <trkpt lat="43.03208" lon="-0.10317">
        <ele>572.12</ele>
        <time>2013-12-07T10:23:47Z</time>
      </trkpt>
      <trkpt lat="43.03191" lon="-0.1031">
        <ele>570.2</ele>
        <time>2013-12-07T10:23:53Z</time>
      </trkpt>
      <trkpt lat="43.03184" lon="-0.10309">
        <ele>569.24</ele>
        <time>2013-12-07T10:23:55Z</time>
      </trkpt>
      <trkpt lat="43.03176" lon="-0.10306">
        <ele>567.8</ele>
        <time>2013-12-07T10:23:57Z</time>
      </trkpt>
      <trkpt lat="43.03171" lon="-0.10302">
        <ele>567.8</ele>
        <time>2013-12-07T10:23:59Z</time>
      </trkpt>
      <trkpt lat="43.03155" lon="-0.103">
        <ele>566.83</ele>
        <time>2013-12-07T10:24:08Z</time>
      </trkpt>
      <trkpt lat="43.03148" lon="-0.10297">
        <ele>565.39</ele>
        <time>2013-12-07T10:24:19Z</time>
      </trkpt>
      <trkpt lat="43.03146" lon="-0.10297">
        <ele>565.87</ele>
        <time>2013-12-07T10:24:38Z</time>
      </trkpt>
      <trkpt lat="43.03146" lon="-0.10296">
        <ele>564.91</ele>
        <time>2013-12-07T10:24:57Z</time>
      </trkpt>
      <trkpt lat="43.03147" lon="-0.10295">
        <ele>564.91</ele>
        <time>2013-12-07T10:25:20Z</time>
      </trkpt>
      <trkpt lat="43.03147" lon="-0.10295">
        <ele>564.91</ele>
        <time>2013-12-07T10:25:21Z</time>
      </trkpt>
      <trkpt lat="43.03132" lon="-0.10293">
        <ele>562.51</ele>
        <time>2013-12-07T10:25:27Z</time>
      </trkpt>
      <trkpt lat="43.03119" lon="-0.10294">
        <ele>559.14</ele>
        <time>2013-12-07T10:25:32Z</time>
      </trkpt>
      <trkpt lat="43.03109" lon="-0.10294">
        <ele>558.18</ele>
        <time>2013-12-07T10:25:35Z</time>
      </trkpt>
      <trkpt lat="43.03103" lon="-0.10293">
        <ele>556.74</ele>
        <time>2013-12-07T10:25:37Z</time>
      </trkpt>
      <trkpt lat="43.03085" lon="-0.10299">
        <ele>553.38</ele>
        <time>2013-12-07T10:25:44Z</time>
      </trkpt>
      <trkpt lat="43.03082" lon="-0.103">
        <ele>552.9</ele>
        <time>2013-12-07T10:25:45Z</time>
      </trkpt>
      <trkpt lat="43.03076" lon="-0.10302">
        <ele>551.45</ele>
        <time>2013-12-07T10:25:54Z</time>
      </trkpt>
      <trkpt lat="43.03073" lon="-0.10304">
        <ele>550.97</ele>
        <time>2013-12-07T10:26:14Z</time>
      </trkpt>
      <trkpt lat="43.03065" lon="-0.10306">
        <ele>549.53</ele>
        <time>2013-12-07T10:26:18Z</time>
      </trkpt>
      <trkpt lat="43.03062" lon="-0.10306">
        <ele>549.05</ele>
        <time>2013-12-07T10:26:19Z</time>
      </trkpt>
      <trkpt lat="43.03059" lon="-0.10308">
        <ele>547.61</ele>
        <time>2013-12-07T10:26:23Z</time>
      </trkpt>
      <trkpt lat="43.03052" lon="-0.10308">
        <ele>543.28</ele>
        <time>2013-12-07T10:26:27Z</time>
      </trkpt>
      <trkpt lat="43.03048" lon="-0.10309">
        <ele>542.8</ele>
        <time>2013-12-07T10:26:29Z</time>
      </trkpt>
      <trkpt lat="43.03047" lon="-0.10308">
        <ele>542.32</ele>
        <time>2013-12-07T10:26:48Z</time>
      </trkpt>
      <trkpt lat="43.03046" lon="-0.10308">
        <ele>542.8</ele>
        <time>2013-12-07T10:27:20Z</time>
      </trkpt>
      <trkpt lat="43.03045" lon="-0.1031">
        <ele>542.32</ele>
        <time>2013-12-07T10:27:47Z</time>
      </trkpt>
      <trkpt lat="43.0304" lon="-0.10312">
        <ele>542.8</ele>
        <time>2013-12-07T10:27:56Z</time>
      </trkpt>
      <trkpt lat="43.0304" lon="-0.10312">
        <ele>542.8</ele>
        <time>2013-12-07T10:27:58Z</time>
      </trkpt>
      <trkpt lat="43.03026" lon="-0.10317">
        <ele>539.44</ele>
        <time>2013-12-07T10:28:05Z</time>
      </trkpt>
      <trkpt lat="43.03014" lon="-0.10319">
        <ele>536.55</ele>
        <time>2013-12-07T10:28:09Z</time>
      </trkpt>
      <trkpt lat="43.03005" lon="-0.10318">
        <ele>535.59</ele>
        <time>2013-12-07T10:28:11Z</time>
      </trkpt>
      <trkpt lat="43.02976" lon="-0.10312">
        <ele>535.59</ele>
        <time>2013-12-07T10:28:21Z</time>
      </trkpt>
      <trkpt lat="43.02975" lon="-0.10311">
        <ele>535.59</ele>
        <time>2013-12-07T10:28:31Z</time>
      </trkpt>
      <trkpt lat="43.02971" lon="-0.1029">
        <ele>535.59</ele>
        <time>2013-12-07T10:28:39Z</time>
      </trkpt>
      <trkpt lat="43.02972" lon="-0.10229">
        <ele>535.11</ele>
        <time>2013-12-07T10:28:53Z</time>
      </trkpt>
      <trkpt lat="43.02975" lon="-0.10213">
        <ele>534.63</ele>
        <time>2013-12-07T10:28:56Z</time>
      </trkpt>
      <trkpt lat="43.02991" lon="-0.10142">
        <ele>532.71</ele>
        <time>2013-12-07T10:29:10Z</time>
      </trkpt>
      <trkpt lat="43.03003" lon="-0.10098">
        <ele>532.23</ele>
        <time>2013-12-07T10:29:23Z</time>
      </trkpt>
      <trkpt lat="43.03013" lon="-0.10063">
        <ele>529.34</ele>
        <time>2013-12-07T10:29:33Z</time>
      </trkpt>
      <trkpt lat="43.03014" lon="-0.10047">
        <ele>528.38</ele>
        <time>2013-12-07T10:29:36Z</time>
      </trkpt>
      <trkpt lat="43.03013" lon="-0.10028">
        <ele>526.94</ele>
        <time>2013-12-07T10:29:39Z</time>
      </trkpt>
      <trkpt lat="43.03011" lon="-0.10014">
        <ele>525.98</ele>
        <time>2013-12-07T10:29:41Z</time>
      </trkpt>
      <trkpt lat="43.03014" lon="-0.09942">
        <ele>522.13</ele>
        <time>2013-12-07T10:29:49Z</time>
      </trkpt>
      <trkpt lat="43.03014" lon="-0.09934">
        <ele>521.65</ele>
        <time>2013-12-07T10:29:50Z</time>
      </trkpt>
      <trkpt lat="43.03012" lon="-0.09902">
        <ele>519.73</ele>
        <time>2013-12-07T10:29:54Z</time>
      </trkpt>
      <trkpt lat="43.03006" lon="-0.09873">
        <ele>517.81</ele>
        <time>2013-12-07T10:29:58Z</time>
      </trkpt>
      <trkpt lat="43.02999" lon="-0.09862">
        <ele>515.88</ele>
        <time>2013-12-07T10:30:00Z</time>
      </trkpt>
      <trkpt lat="43.02986" lon="-0.09846">
        <ele>513.48</ele>
        <time>2013-12-07T10:30:03Z</time>
      </trkpt>
      <trkpt lat="43.02979" lon="-0.09835">
        <ele>511.56</ele>
        <time>2013-12-07T10:30:05Z</time>
      </trkpt>
      <trkpt lat="43.02963" lon="-0.09813">
        <ele>508.67</ele>
        <time>2013-12-07T10:30:09Z</time>
      </trkpt>
      <trkpt lat="43.02952" lon="-0.09792">
        <ele>506.27</ele>
        <time>2013-12-07T10:30:13Z</time>
      </trkpt>
      <trkpt lat="43.02946" lon="-0.09779">
        <ele>503.39</ele>
        <time>2013-12-07T10:30:17Z</time>
      </trkpt>
      <trkpt lat="43.02945" lon="-0.09767">
        <ele>501.46</ele>
        <time>2013-12-07T10:30:20Z</time>
      </trkpt>
      <trkpt lat="43.02945" lon="-0.09743">
        <ele>498.1</ele>
        <time>2013-12-07T10:30:26Z</time>
      </trkpt>
      <trkpt lat="43.02944" lon="-0.09731">
        <ele>496.66</ele>
        <time>2013-12-07T10:30:30Z</time>
      </trkpt>
      <trkpt lat="43.02944" lon="-0.09704">
        <ele>493.29</ele>
        <time>2013-12-07T10:30:36Z</time>
      </trkpt>
      <trkpt lat="43.02944" lon="-0.097">
        <ele>492.81</ele>
        <time>2013-12-07T10:30:37Z</time>
      </trkpt>
      <trkpt lat="43.02947" lon="-0.0967">
        <ele>489.93</ele>
        <time>2013-12-07T10:30:44Z</time>
      </trkpt>
      <trkpt lat="43.02948" lon="-0.09659">
        <ele>488.97</ele>
        <time>2013-12-07T10:30:46Z</time>
      </trkpt>
      <trkpt lat="43.02949" lon="-0.09653">
        <ele>488.49</ele>
        <time>2013-12-07T10:30:47Z</time>
      </trkpt>
      <trkpt lat="43.0295" lon="-0.09649">
        <ele>488.97</ele>
        <time>2013-12-07T10:30:48Z</time>
      </trkpt>
      <trkpt lat="43.02955" lon="-0.09624">
        <ele>487.05</ele>
        <time>2013-12-07T10:30:52Z</time>
      </trkpt>
      <trkpt lat="43.02957" lon="-0.09617">
        <ele>486.56</ele>
        <time>2013-12-07T10:30:53Z</time>
      </trkpt>
      <trkpt lat="43.02958" lon="-0.09579">
        <ele>486.56</ele>
        <time>2013-12-07T10:31:02Z</time>
      </trkpt>
      <trkpt lat="43.02956" lon="-0.09568">
        <ele>485.12</ele>
        <time>2013-12-07T10:31:05Z</time>
      </trkpt>
      <trkpt lat="43.02954" lon="-0.09556">
        <ele>484.64</ele>
        <time>2013-12-07T10:31:14Z</time>
      </trkpt>
      <trkpt lat="43.02952" lon="-0.0955">
        <ele>484.64</ele>
        <time>2013-12-07T10:31:28Z</time>
      </trkpt>
      <trkpt lat="43.02952" lon="-0.09549">
        <ele>484.16</ele>
        <time>2013-12-07T10:31:47Z</time>
      </trkpt>
      <trkpt lat="43.02946" lon="-0.09534">
        <ele>480.8</ele>
        <time>2013-12-07T10:31:54Z</time>
      </trkpt>
      <trkpt lat="43.0294" lon="-0.09516">
        <ele>477.43</ele>
        <time>2013-12-07T10:31:59Z</time>
      </trkpt>
      <trkpt lat="43.02946" lon="-0.09498">
        <ele>474.07</ele>
        <time>2013-12-07T10:32:03Z</time>
      </trkpt>
      <trkpt lat="43.02953" lon="-0.09478">
        <ele>468.78</ele>
        <time>2013-12-07T10:32:08Z</time>
      </trkpt>
      <trkpt lat="43.0296" lon="-0.0946">
        <ele>464.93</ele>
        <time>2013-12-07T10:32:13Z</time>
      </trkpt>
      <trkpt lat="43.02962" lon="-0.09459">
        <ele>464.45</ele>
        <time>2013-12-07T10:32:14Z</time>
      </trkpt>
      <trkpt lat="43.02967" lon="-0.09448">
        <ele>461.09</ele>
        <time>2013-12-07T10:32:19Z</time>
      </trkpt>
      <trkpt lat="43.0297" lon="-0.09433">
        <ele>458.21</ele>
        <time>2013-12-07T10:32:23Z</time>
      </trkpt>
      <trkpt lat="43.02973" lon="-0.0941">
        <ele>454.84</ele>
        <time>2013-12-07T10:32:29Z</time>
      </trkpt>
      <trkpt lat="43.02977" lon="-0.09384">
        <ele>450.03</ele>
        <time>2013-12-07T10:32:34Z</time>
      </trkpt>
      <trkpt lat="43.02984" lon="-0.09352">
        <ele>446.67</ele>
        <time>2013-12-07T10:32:39Z</time>
      </trkpt>
      <trkpt lat="43.02986" lon="-0.09345">
        <ele>445.71</ele>
        <time>2013-12-07T10:32:40Z</time>
      </trkpt>
      <trkpt lat="43.02987" lon="-0.0934">
        <ele>445.23</ele>
        <time>2013-12-07T10:32:41Z</time>
      </trkpt>
      <trkpt lat="43.02988" lon="-0.09335">
        <ele>444.75</ele>
        <time>2013-12-07T10:32:42Z</time>
      </trkpt>
      <trkpt lat="43.0299" lon="-0.0933">
        <ele>444.27</ele>
        <time>2013-12-07T10:32:43Z</time>
      </trkpt>
      <trkpt lat="43.02991" lon="-0.09326">
        <ele>443.79</ele>
        <time>2013-12-07T10:32:44Z</time>
      </trkpt>
      <trkpt lat="43.02994" lon="-0.09308">
        <ele>442.82</ele>
        <time>2013-12-07T10:32:47Z</time>
      </trkpt>
      <trkpt lat="43.02997" lon="-0.09304">
        <ele>442.82</ele>
        <time>2013-12-07T10:32:48Z</time>
      </trkpt>
      <trkpt lat="43.03" lon="-0.09303">
        <ele>442.82</ele>
        <time>2013-12-07T10:32:49Z</time>
      </trkpt>
      <trkpt lat="43.03005" lon="-0.09295">
        <ele>442.82</ele>
        <time>2013-12-07T10:32:58Z</time>
      </trkpt>
      <trkpt lat="43.03006" lon="-0.09287">
        <ele>443.31</ele>
        <time>2013-12-07T10:33:23Z</time>
      </trkpt>
      <trkpt lat="43.03007" lon="-0.09285">
        <ele>442.82</ele>
        <time>2013-12-07T10:33:54Z</time>
      </trkpt>
      <trkpt lat="43.03008" lon="-0.09285">
        <ele>441.86</ele>
        <time>2013-12-07T10:34:27Z</time>
      </trkpt>
      <trkpt lat="43.03008" lon="-0.09285">
        <ele>442.34</ele>
        <time>2013-12-07T10:35:05Z</time>
      </trkpt>
      <trkpt lat="43.03009" lon="-0.09284">
        <ele>441.86</ele>
        <time>2013-12-07T10:35:38Z</time>
      </trkpt>
      <trkpt lat="43.03009" lon="-0.09281">
        <ele>441.86</ele>
        <time>2013-12-07T10:36:12Z</time>
      </trkpt>
      <trkpt lat="43.0301" lon="-0.09281">
        <ele>442.34</ele>
        <time>2013-12-07T10:36:35Z</time>
      </trkpt>
      <trkpt lat="43.03013" lon="-0.09279">
        <ele>443.31</ele>
        <time>2013-12-07T10:36:44Z</time>
      </trkpt>
      <trkpt lat="43.03015" lon="-0.0928">
        <ele>443.31</ele>
        <time>2013-12-07T10:36:55Z</time>
      </trkpt>
      <trkpt lat="43.03015" lon="-0.09279">
        <ele>443.31</ele>
        <time>2013-12-07T10:37:25Z</time>
      </trkpt>
      <trkpt lat="43.03015" lon="-0.0928">
        <ele>443.31</ele>
        <time>2013-12-07T10:37:55Z</time>
      </trkpt>
      <trkpt lat="43.03016" lon="-0.09281">
        <ele>443.79</ele>
        <time>2013-12-07T10:38:31Z</time>
      </trkpt>
      <trkpt lat="43.03015" lon="-0.09281">
        <ele>443.79</ele>
        <time>2013-12-07T10:39:04Z</time>
      </trkpt>
      <trkpt lat="43.03016" lon="-0.09281">
        <ele>443.79</ele>
        <time>2013-12-07T10:39:36Z</time>
      </trkpt>
      <trkpt lat="43.03016" lon="-0.09281">
        <ele>444.27</ele>
        <time>2013-12-07T10:40:10Z</time>
      </trkpt>
      <trkpt lat="43.03015" lon="-0.09281">
        <ele>444.27</ele>
        <time>2013-12-07T10:40:43Z</time>
      </trkpt>
      <trkpt lat="43.03015" lon="-0.09281">
        <ele>444.27</ele>
        <time>2013-12-07T10:41:14Z</time>
      </trkpt>
      <trkpt lat="43.03015" lon="-0.09281">
        <ele>444.27</ele>
        <time>2013-12-07T10:41:50Z</time>
      </trkpt>
      <trkpt lat="43.03015" lon="-0.09281">
        <ele>444.75</ele>
        <time>2013-12-07T10:42:19Z</time>
      </trkpt>
      <trkpt lat="43.03016" lon="-0.0928">
        <ele>445.23</ele>
        <time>2013-12-07T10:42:33Z</time>
      </trkpt>
      <trkpt lat="43.03018" lon="-0.09279">
        <ele>445.23</ele>
        <time>2013-12-07T10:42:38Z</time>
      </trkpt>
      <trkpt lat="43.03019" lon="-0.09279">
        <ele>445.71</ele>
        <time>2013-12-07T10:42:39Z</time>
      </trkpt>
      <trkpt lat="43.03022" lon="-0.09279">
        <ele>445.71</ele>
        <time>2013-12-07T10:42:41Z</time>
      </trkpt>
      <trkpt lat="43.03043" lon="-0.09266">
        <ele>449.55</ele>
        <time>2013-12-07T10:42:54Z</time>
      </trkpt>
      <trkpt lat="43.03063" lon="-0.09245">
        <ele>451.48</ele>
        <time>2013-12-07T10:43:06Z</time>
      </trkpt>
      <trkpt lat="43.03088" lon="-0.0922">
        <ele>453.4</ele>
        <time>2013-12-07T10:43:20Z</time>
      </trkpt>
      <trkpt lat="43.03112" lon="-0.09199">
        <ele>455.8</ele>
        <time>2013-12-07T10:43:35Z</time>
      </trkpt>
      <trkpt lat="43.03129" lon="-0.09178">
        <ele>457.72</ele>
        <time>2013-12-07T10:43:46Z</time>
      </trkpt>
      <trkpt lat="43.03148" lon="-0.09156">
        <ele>458.21</ele>
        <time>2013-12-07T10:43:58Z</time>
      </trkpt>
      <trkpt lat="43.03158" lon="-0.0913">
        <ele>459.65</ele>
        <time>2013-12-07T10:44:09Z</time>
      </trkpt>
      <trkpt lat="43.03159" lon="-0.09128">
        <ele>459.17</ele>
        <time>2013-12-07T10:44:10Z</time>
      </trkpt>
      <trkpt lat="43.03159" lon="-0.09125">
        <ele>460.13</ele>
        <time>2013-12-07T10:44:11Z</time>
      </trkpt>
      <trkpt lat="43.03173" lon="-0.09089">
        <ele>462.05</ele>
        <time>2013-12-07T10:44:25Z</time>
      </trkpt>
      <trkpt lat="43.03183" lon="-0.09058">
        <ele>464.93</ele>
        <time>2013-12-07T10:44:37Z</time>
      </trkpt>
      <trkpt lat="43.03193" lon="-0.0902">
        <ele>468.3</ele>
        <time>2013-12-07T10:44:49Z</time>
      </trkpt>
      <trkpt lat="43.03199" lon="-0.08981">
        <ele>471.18</ele>
        <time>2013-12-07T10:45:03Z</time>
      </trkpt>
      <trkpt lat="43.03204" lon="-0.08948">
        <ele>473.11</ele>
        <time>2013-12-07T10:45:16Z</time>
      </trkpt>
      <trkpt lat="43.03208" lon="-0.08907">
        <ele>475.51</ele>
        <time>2013-12-07T10:45:27Z</time>
      </trkpt>
      <trkpt lat="43.03208" lon="-0.0888">
        <ele>478.39</ele>
        <time>2013-12-07T10:45:34Z</time>
      </trkpt>
      <trkpt lat="43.03208" lon="-0.08877">
        <ele>479.35</ele>
        <time>2013-12-07T10:45:35Z</time>
      </trkpt>
      <trkpt lat="43.03209" lon="-0.08873">
        <ele>478.87</ele>
        <time>2013-12-07T10:45:36Z</time>
      </trkpt>
      <trkpt lat="43.03213" lon="-0.08864">
        <ele>481.28</ele>
        <time>2013-12-07T10:45:39Z</time>
      </trkpt>
      <trkpt lat="43.03215" lon="-0.08861">
        <ele>481.28</ele>
        <time>2013-12-07T10:45:40Z</time>
      </trkpt>
      <trkpt lat="43.03217" lon="-0.08858">
        <ele>481.76</ele>
        <time>2013-12-07T10:45:41Z</time>
      </trkpt>
      <trkpt lat="43.03219" lon="-0.08855">
        <ele>482.24</ele>
        <time>2013-12-07T10:45:42Z</time>
      </trkpt>
      <trkpt lat="43.03221" lon="-0.08852">
        <ele>482.72</ele>
        <time>2013-12-07T10:45:43Z</time>
      </trkpt>
      <trkpt lat="43.03222" lon="-0.0885">
        <ele>483.2</ele>
        <time>2013-12-07T10:45:44Z</time>
      </trkpt>
      <trkpt lat="43.03224" lon="-0.08847">
        <ele>483.2</ele>
        <time>2013-12-07T10:45:45Z</time>
      </trkpt>
      <trkpt lat="43.03225" lon="-0.08844">
        <ele>483.68</ele>
        <time>2013-12-07T10:45:46Z</time>
      </trkpt>
      <trkpt lat="43.03226" lon="-0.08842">
        <ele>483.68</ele>
        <time>2013-12-07T10:45:47Z</time>
      </trkpt>
      <trkpt lat="43.03227" lon="-0.0884">
        <ele>483.68</ele>
        <time>2013-12-07T10:45:48Z</time>
      </trkpt>
      <trkpt lat="43.03244" lon="-0.08804">
        <ele>485.12</ele>
        <time>2013-12-07T10:46:02Z</time>
      </trkpt>
      <trkpt lat="43.0326" lon="-0.08764">
        <ele>485.12</ele>
        <time>2013-12-07T10:46:17Z</time>
      </trkpt>
      <trkpt lat="43.03269" lon="-0.08747">
        <ele>485.12</ele>
        <time>2013-12-07T10:46:29Z</time>
      </trkpt>
      <trkpt lat="43.03267" lon="-0.08747">
        <ele>485.6</ele>
        <time>2013-12-07T10:47:07Z</time>
      </trkpt>
      <trkpt lat="43.03268" lon="-0.08747">
        <ele>485.12</ele>
        <time>2013-12-07T10:47:45Z</time>
      </trkpt>
      <trkpt lat="43.03269" lon="-0.08748">
        <ele>485.12</ele>
        <time>2013-12-07T10:48:24Z</time>
      </trkpt>
      <trkpt lat="43.03269" lon="-0.08746">
        <ele>485.6</ele>
        <time>2013-12-07T10:48:38Z</time>
      </trkpt>
      <trkpt lat="43.03268" lon="-0.08746">
        <ele>485.6</ele>
        <time>2013-12-07T10:49:09Z</time>
      </trkpt>
      <trkpt lat="43.03267" lon="-0.08747">
        <ele>485.6</ele>
        <time>2013-12-07T10:49:36Z</time>
      </trkpt>
      <trkpt lat="43.03267" lon="-0.08746">
        <ele>485.6</ele>
        <time>2013-12-07T10:50:00Z</time>
      </trkpt>
      <trkpt lat="43.03268" lon="-0.08746">
        <ele>485.6</ele>
        <time>2013-12-07T10:50:31Z</time>
      </trkpt>
      <trkpt lat="43.03268" lon="-0.08744">
        <ele>485.6</ele>
        <time>2013-12-07T10:51:01Z</time>
      </trkpt>
      <trkpt lat="43.03278" lon="-0.08716">
        <ele>486.08</ele>
        <time>2013-12-07T10:51:10Z</time>
      </trkpt>
      <trkpt lat="43.0329" lon="-0.08679">
        <ele>488.01</ele>
        <time>2013-12-07T10:51:21Z</time>
      </trkpt>
      <trkpt lat="43.0331" lon="-0.08628">
        <ele>488.97</ele>
        <time>2013-12-07T10:51:35Z</time>
      </trkpt>
      <trkpt lat="43.03347" lon="-0.08564">
        <ele>487.53</ele>
        <time>2013-12-07T10:51:49Z</time>
      </trkpt>
      <trkpt lat="43.03357" lon="-0.08544">
        <ele>487.05</ele>
        <time>2013-12-07T10:51:53Z</time>
      </trkpt>
      <trkpt lat="43.03391" lon="-0.08519">
        <ele>484.64</ele>
        <time>2013-12-07T10:52:01Z</time>
      </trkpt>
      <trkpt lat="43.034" lon="-0.085">
        <ele>484.16</ele>
        <time>2013-12-07T10:52:04Z</time>
      </trkpt>
      <trkpt lat="43.03423" lon="-0.08459">
        <ele>485.6</ele>
        <time>2013-12-07T10:52:14Z</time>
      </trkpt>
      <trkpt lat="43.03439" lon="-0.08435">
        <ele>485.12</ele>
        <time>2013-12-07T10:52:24Z</time>
      </trkpt>
      <trkpt lat="43.03439" lon="-0.08424">
        <ele>484.64</ele>
        <time>2013-12-07T10:52:35Z</time>
      </trkpt>
      <trkpt lat="43.0344" lon="-0.08423">
        <ele>483.68</ele>
        <time>2013-12-07T10:52:57Z</time>
      </trkpt>
      <trkpt lat="43.03434" lon="-0.08411">
        <ele>482.72</ele>
        <time>2013-12-07T10:53:01Z</time>
      </trkpt>
      <trkpt lat="43.03417" lon="-0.08385">
        <ele>477.91</ele>
        <time>2013-12-07T10:53:07Z</time>
      </trkpt>
      <trkpt lat="43.03416" lon="-0.08364">
        <ele>475.03</ele>
        <time>2013-12-07T10:53:12Z</time>
      </trkpt>
      <trkpt lat="43.03415" lon="-0.0836">
        <ele>475.03</ele>
        <time>2013-12-07T10:53:13Z</time>
      </trkpt>
      <trkpt lat="43.03407" lon="-0.08337">
        <ele>470.7</ele>
        <time>2013-12-07T10:53:18Z</time>
      </trkpt>
      <trkpt lat="43.03399" lon="-0.08326">
        <ele>468.78</ele>
        <time>2013-12-07T10:53:21Z</time>
      </trkpt>
      <trkpt lat="43.03391" lon="-0.08311">
        <ele>466.86</ele>
        <time>2013-12-07T10:53:24Z</time>
      </trkpt>
      <trkpt lat="43.03372" lon="-0.08292">
        <ele>462.05</ele>
        <time>2013-12-07T10:53:28Z</time>
      </trkpt>
      <trkpt lat="43.03352" lon="-0.08286">
        <ele>458.69</ele>
        <time>2013-12-07T10:53:31Z</time>
      </trkpt>
      <trkpt lat="43.03337" lon="-0.08279">
        <ele>456.28</ele>
        <time>2013-12-07T10:53:33Z</time>
      </trkpt>
      <trkpt lat="43.03306" lon="-0.0826">
        <ele>451.48</ele>
        <time>2013-12-07T10:53:37Z</time>
      </trkpt>
      <trkpt lat="43.03281" lon="-0.08245">
        <ele>447.15</ele>
        <time>2013-12-07T10:53:40Z</time>
      </trkpt>
      <trkpt lat="43.03266" lon="-0.08237">
        <ele>445.23</ele>
        <time>2013-12-07T10:53:42Z</time>
      </trkpt>
      <trkpt lat="43.03236" lon="-0.0824">
        <ele>441.38</ele>
        <time>2013-12-07T10:53:46Z</time>
      </trkpt>
      <trkpt lat="43.03202" lon="-0.0825">
        <ele>436.58</ele>
        <time>2013-12-07T10:53:50Z</time>
      </trkpt>
      <trkpt lat="43.03167" lon="-0.08255">
        <ele>432.73</ele>
        <time>2013-12-07T10:53:54Z</time>
      </trkpt>
      <trkpt lat="43.0314" lon="-0.0826">
        <ele>429.85</ele>
        <time>2013-12-07T10:53:57Z</time>
      </trkpt>
      <trkpt lat="43.03131" lon="-0.08262">
        <ele>428.4</ele>
        <time>2013-12-07T10:53:58Z</time>
      </trkpt>
      <trkpt lat="43.03106" lon="-0.08262">
        <ele>426.48</ele>
        <time>2013-12-07T10:54:01Z</time>
      </trkpt>
      <trkpt lat="43.0307" lon="-0.08262">
        <ele>422.64</ele>
        <time>2013-12-07T10:54:08Z</time>
      </trkpt>
      <trkpt lat="43.03067" lon="-0.08277">
        <ele>422.16</ele>
        <time>2013-12-07T10:54:10Z</time>
      </trkpt>
      <trkpt lat="43.03066" lon="-0.08285">
        <ele>421.19</ele>
        <time>2013-12-07T10:54:11Z</time>
      </trkpt>
      <trkpt lat="43.03056" lon="-0.08379">
        <ele>417.83</ele>
        <time>2013-12-07T10:54:22Z</time>
      </trkpt>
      <trkpt lat="43.03049" lon="-0.08411">
        <ele>416.87</ele>
        <time>2013-12-07T10:54:26Z</time>
      </trkpt>
      <trkpt lat="43.03029" lon="-0.08506">
        <ele>413.02</ele>
        <time>2013-12-07T10:54:37Z</time>
      </trkpt>
      <trkpt lat="43.03025" lon="-0.08524">
        <ele>412.54</ele>
        <time>2013-12-07T10:54:39Z</time>
      </trkpt>
      <trkpt lat="43.03004" lon="-0.08648">
        <ele>412.54</ele>
        <time>2013-12-07T10:54:54Z</time>
      </trkpt>
      <trkpt lat="43.02977" lon="-0.08792">
        <ele>414.47</ele>
        <time>2013-12-07T10:55:14Z</time>
      </trkpt>
      <trkpt lat="43.02956" lon="-0.08898">
        <ele>417.83</ele>
        <time>2013-12-07T10:55:31Z</time>
      </trkpt>
      <trkpt lat="43.02936" lon="-0.09">
        <ele>420.71</ele>
        <time>2013-12-07T10:55:49Z</time>
      </trkpt>
      <trkpt lat="43.02932" lon="-0.09016">
        <ele>420.71</ele>
        <time>2013-12-07T10:55:52Z</time>
      </trkpt>
      <trkpt lat="43.02914" lon="-0.09066">
        <ele>421.19</ele>
        <time>2013-12-07T10:56:01Z</time>
      </trkpt>
      <trkpt lat="43.0291" lon="-0.09078">
        <ele>421.19</ele>
        <time>2013-12-07T10:56:03Z</time>
      </trkpt>
      <trkpt lat="43.029" lon="-0.09097">
        <ele>421.19</ele>
        <time>2013-12-07T10:56:07Z</time>
      </trkpt>
      <trkpt lat="43.02888" lon="-0.09115">
        <ele>421.68</ele>
        <time>2013-12-07T10:56:11Z</time>
      </trkpt>
      <trkpt lat="43.02875" lon="-0.09133">
        <ele>421.68</ele>
        <time>2013-12-07T10:56:15Z</time>
      </trkpt>
      <trkpt lat="43.02818" lon="-0.0919">
        <ele>421.68</ele>
        <time>2013-12-07T10:56:29Z</time>
      </trkpt>
      <trkpt lat="43.02806" lon="-0.09208">
        <ele>422.64</ele>
        <time>2013-12-07T10:56:33Z</time>
      </trkpt>
      <trkpt lat="43.02746" lon="-0.09267">
        <ele>423.6</ele>
        <time>2013-12-07T10:56:50Z</time>
      </trkpt>
      <trkpt lat="43.02742" lon="-0.0927">
        <ele>423.6</ele>
        <time>2013-12-07T10:56:51Z</time>
      </trkpt>
      <trkpt lat="43.02715" lon="-0.0929">
        <ele>423.6</ele>
        <time>2013-12-07T10:56:58Z</time>
      </trkpt>
      <trkpt lat="43.02646" lon="-0.0934">
        <ele>422.64</ele>
        <time>2013-12-07T10:57:14Z</time>
      </trkpt>
      <trkpt lat="43.02591" lon="-0.09381">
        <ele>423.6</ele>
        <time>2013-12-07T10:57:27Z</time>
      </trkpt>
      <trkpt lat="43.02582" lon="-0.09386">
        <ele>423.12</ele>
        <time>2013-12-07T10:57:29Z</time>
      </trkpt>
      <trkpt lat="43.02553" lon="-0.09412">
        <ele>422.16</ele>
        <time>2013-12-07T10:57:36Z</time>
      </trkpt>
      <trkpt lat="43.02517" lon="-0.0945">
        <ele>421.68</ele>
        <time>2013-12-07T10:57:44Z</time>
      </trkpt>
      <trkpt lat="43.02511" lon="-0.09465">
        <ele>421.19</ele>
        <time>2013-12-07T10:57:46Z</time>
      </trkpt>
      <trkpt lat="43.02506" lon="-0.09479">
        <ele>420.71</ele>
        <time>2013-12-07T10:57:48Z</time>
      </trkpt>
      <trkpt lat="43.02485" lon="-0.09499">
        <ele>420.71</ele>
        <time>2013-12-07T10:57:53Z</time>
      </trkpt>
      <trkpt lat="43.02464" lon="-0.09517">
        <ele>421.19</ele>
        <time>2013-12-07T10:57:58Z</time>
      </trkpt>
      <trkpt lat="43.02457" lon="-0.09526">
        <ele>421.19</ele>
        <time>2013-12-07T10:58:00Z</time>
      </trkpt>
      <trkpt lat="43.02435" lon="-0.09556">
        <ele>421.19</ele>
        <time>2013-12-07T10:58:06Z</time>
      </trkpt>
      <trkpt lat="43.0238" lon="-0.09632">
        <ele>422.16</ele>
        <time>2013-12-07T10:58:19Z</time>
      </trkpt>
      <trkpt lat="43.02365" lon="-0.09645">
        <ele>422.64</ele>
        <time>2013-12-07T10:58:22Z</time>
      </trkpt>
      <trkpt lat="43.02277" lon="-0.09671">
        <ele>421.68</ele>
        <time>2013-12-07T10:58:38Z</time>
      </trkpt>
      <trkpt lat="43.02258" lon="-0.09673">
        <ele>421.19</ele>
        <time>2013-12-07T10:58:41Z</time>
      </trkpt>
      <trkpt lat="43.0223" lon="-0.0968">
        <ele>420.23</ele>
        <time>2013-12-07T10:58:46Z</time>
      </trkpt>
      <trkpt lat="43.02209" lon="-0.09687">
        <ele>420.23</ele>
        <time>2013-12-07T10:58:51Z</time>
      </trkpt>
      <trkpt lat="43.02206" lon="-0.09686">
        <ele>420.71</ele>
        <time>2013-12-07T10:59:04Z</time>
      </trkpt>
      <trkpt lat="43.02206" lon="-0.09687">
        <ele>420.23</ele>
        <time>2013-12-07T10:59:40Z</time>
      </trkpt>
      <trkpt lat="43.02206" lon="-0.09686">
        <ele>420.23</ele>
        <time>2013-12-07T10:59:45Z</time>
      </trkpt>
      <trkpt lat="43.02199" lon="-0.09687">
        <ele>420.23</ele>
        <time>2013-12-07T10:59:50Z</time>
      </trkpt>
      <trkpt lat="43.02178" lon="-0.09689">
        <ele>419.75</ele>
        <time>2013-12-07T10:59:56Z</time>
      </trkpt>
      <trkpt lat="43.02118" lon="-0.09684">
        <ele>419.27</ele>
        <time>2013-12-07T11:00:11Z</time>
      </trkpt>
      <trkpt lat="43.02087" lon="-0.09683">
        <ele>418.79</ele>
        <time>2013-12-07T11:00:22Z</time>
      </trkpt>
      <trkpt lat="43.02072" lon="-0.09668">
        <ele>415.43</ele>
        <time>2013-12-07T11:00:28Z</time>
      </trkpt>
      <trkpt lat="43.02068" lon="-0.09656">
        <ele>414.47</ele>
        <time>2013-12-07T11:00:30Z</time>
      </trkpt>
      <trkpt lat="43.02061" lon="-0.09599">
        <ele>413.5</ele>
        <time>2013-12-07T11:00:38Z</time>
      </trkpt>
      <trkpt lat="43.02046" lon="-0.09592">
        <ele>413.02</ele>
        <time>2013-12-07T11:00:42Z</time>
      </trkpt>
      <trkpt lat="43.02013" lon="-0.09603">
        <ele>413.02</ele>
        <time>2013-12-07T11:00:49Z</time>
      </trkpt>
      <trkpt lat="43.01981" lon="-0.0961">
        <ele>413.02</ele>
        <time>2013-12-07T11:00:56Z</time>
      </trkpt>
      <trkpt lat="43.01948" lon="-0.09617">
        <ele>413.5</ele>
        <time>2013-12-07T11:01:03Z</time>
      </trkpt>
      <trkpt lat="43.01932" lon="-0.09595">
        <ele>413.98</ele>
        <time>2013-12-07T11:01:11Z</time>
      </trkpt>
      <trkpt lat="43.01933" lon="-0.09579">
        <ele>413.5</ele>
        <time>2013-12-07T11:01:14Z</time>
      </trkpt>
      <trkpt lat="43.01918" lon="-0.09576">
        <ele>413.98</ele>
        <time>2013-12-07T11:01:22Z</time>
      </trkpt>
      <trkpt lat="43.01884" lon="-0.09608">
        <ele>414.95</ele>
        <time>2013-12-07T11:01:35Z</time>
      </trkpt>
      <trkpt lat="43.0184" lon="-0.09641">
        <ele>414.47</ele>
        <time>2013-12-07T11:01:50Z</time>
      </trkpt>
      <trkpt lat="43.01785" lon="-0.0967">
        <ele>415.43</ele>
        <time>2013-12-07T11:02:06Z</time>
      </trkpt>
      <trkpt lat="43.01718" lon="-0.0969">
        <ele>416.39</ele>
        <time>2013-12-07T11:02:24Z</time>
      </trkpt>
      <trkpt lat="43.01643" lon="-0.0971">
        <ele>416.39</ele>
        <time>2013-12-07T11:02:43Z</time>
      </trkpt>
      <trkpt lat="43.01631" lon="-0.09714">
        <ele>416.39</ele>
        <time>2013-12-07T11:02:46Z</time>
      </trkpt>
      <trkpt lat="43.01571" lon="-0.0973">
        <ele>417.35</ele>
        <time>2013-12-07T11:03:01Z</time>
      </trkpt>
      <trkpt lat="43.01496" lon="-0.0975">
        <ele>418.31</ele>
        <time>2013-12-07T11:03:19Z</time>
      </trkpt>
      <trkpt lat="43.01436" lon="-0.09765">
        <ele>418.79</ele>
        <time>2013-12-07T11:03:33Z</time>
      </trkpt>
      <trkpt lat="43.01361" lon="-0.09777">
        <ele>420.23</ele>
        <time>2013-12-07T11:03:50Z</time>
      </trkpt>
      <trkpt lat="43.01339" lon="-0.09779">
        <ele>420.71</ele>
        <time>2013-12-07T11:03:55Z</time>
      </trkpt>
      <trkpt lat="43.01304" lon="-0.09781">
        <ele>421.19</ele>
        <time>2013-12-07T11:04:03Z</time>
      </trkpt>
      <trkpt lat="43.01225" lon="-0.09788">
        <ele>419.27</ele>
        <time>2013-12-07T11:04:18Z</time>
      </trkpt>
      <trkpt lat="43.01171" lon="-0.09793">
        <ele>419.75</ele>
        <time>2013-12-07T11:04:28Z</time>
      </trkpt>
      <trkpt lat="43.01162" lon="-0.09792">
        <ele>420.71</ele>
        <time>2013-12-07T11:04:30Z</time>
      </trkpt>
      <trkpt lat="43.01139" lon="-0.09795">
        <ele>420.71</ele>
        <time>2013-12-07T11:04:35Z</time>
      </trkpt>
      <trkpt lat="43.01107" lon="-0.0979">
        <ele>421.68</ele>
        <time>2013-12-07T11:04:42Z</time>
      </trkpt>
      <trkpt lat="43.01098" lon="-0.09787">
        <ele>422.16</ele>
        <time>2013-12-07T11:04:44Z</time>
      </trkpt>
      <trkpt lat="43.01062" lon="-0.09779">
        <ele>423.6</ele>
        <time>2013-12-07T11:04:52Z</time>
      </trkpt>
      <trkpt lat="43.01049" lon="-0.09775">
        <ele>423.6</ele>
        <time>2013-12-07T11:04:55Z</time>
      </trkpt>
      <trkpt lat="43.01033" lon="-0.09767">
        <ele>424.56</ele>
        <time>2013-12-07T11:04:59Z</time>
      </trkpt>
      <trkpt lat="43.01009" lon="-0.09755">
        <ele>425.04</ele>
        <time>2013-12-07T11:05:05Z</time>
      </trkpt>
      <trkpt lat="43.00961" lon="-0.09719">
        <ele>426.96</ele>
        <time>2013-12-07T11:05:19Z</time>
      </trkpt>
      <trkpt lat="43.00909" lon="-0.09665">
        <ele>427.92</ele>
        <time>2013-12-07T11:05:35Z</time>
      </trkpt>
      <trkpt lat="43.00892" lon="-0.09648">
        <ele>427.92</ele>
        <time>2013-12-07T11:05:40Z</time>
      </trkpt>
      <trkpt lat="43.00829" lon="-0.0957">
        <ele>427.92</ele>
        <time>2013-12-07T11:05:58Z</time>
      </trkpt>
      <trkpt lat="43.00817" lon="-0.09555">
        <ele>427.44</ele>
        <time>2013-12-07T11:06:01Z</time>
      </trkpt>
      <trkpt lat="43.00806" lon="-0.0954">
        <ele>427.92</ele>
        <time>2013-12-07T11:06:04Z</time>
      </trkpt>
      <trkpt lat="43.00786" lon="-0.09517">
        <ele>427.92</ele>
        <time>2013-12-07T11:06:09Z</time>
      </trkpt>
      <trkpt lat="43.00764" lon="-0.0949">
        <ele>428.4</ele>
        <time>2013-12-07T11:06:16Z</time>
      </trkpt>
      <trkpt lat="43.00751" lon="-0.09502">
        <ele>428.89</ele>
        <time>2013-12-07T11:06:24Z</time>
      </trkpt>
      <trkpt lat="43.00748" lon="-0.09507">
        <ele>428.89</ele>
        <time>2013-12-07T11:06:26Z</time>
      </trkpt>
      <trkpt lat="43.00735" lon="-0.09501">
        <ele>428.89</ele>
        <time>2013-12-07T11:06:32Z</time>
      </trkpt>
      <trkpt lat="43.00735" lon="-0.0949">
        <ele>429.37</ele>
        <time>2013-12-07T11:06:40Z</time>
      </trkpt>
      <trkpt lat="43.00736" lon="-0.09489">
        <ele>428.89</ele>
        <time>2013-12-07T11:07:00Z</time>
      </trkpt>
      <trkpt lat="43.00737" lon="-0.09489">
        <ele>428.89</ele>
        <time>2013-12-07T11:07:31Z</time>
      </trkpt>
      <trkpt lat="43.00736" lon="-0.0949">
        <ele>429.85</ele>
        <time>2013-12-07T11:08:05Z</time>
      </trkpt>
      <trkpt lat="43.00736" lon="-0.09489">
        <ele>429.85</ele>
        <time>2013-12-07T11:08:41Z</time>
      </trkpt>
      <trkpt lat="43.00736" lon="-0.0949">
        <ele>429.85</ele>
        <time>2013-12-07T11:09:08Z</time>
      </trkpt>
      <trkpt lat="43.00736" lon="-0.0949">
        <ele>429.85</ele>
        <time>2013-12-07T11:09:34Z</time>
      </trkpt>
      <trkpt lat="43.00735" lon="-0.0949">
        <ele>430.33</ele>
        <time>2013-12-07T11:09:58Z</time>
      </trkpt>
      <trkpt lat="43.00734" lon="-0.09491">
        <ele>430.81</ele>
        <time>2013-12-07T11:10:25Z</time>
      </trkpt>
      <trkpt lat="43.00734" lon="-0.09492">
        <ele>430.81</ele>
        <time>2013-12-07T11:10:53Z</time>
      </trkpt>
      <trkpt lat="43.00734" lon="-0.09493">
        <ele>430.81</ele>
        <time>2013-12-07T11:11:20Z</time>
      </trkpt>
      <trkpt lat="43.00734" lon="-0.09492">
        <ele>430.81</ele>
        <time>2013-12-07T11:11:46Z</time>
      </trkpt>
      <trkpt lat="43.00733" lon="-0.09492">
        <ele>430.81</ele>
        <time>2013-12-07T11:12:12Z</time>
      </trkpt>
      <trkpt lat="43.00733" lon="-0.09493">
        <ele>430.33</ele>
        <time>2013-12-07T11:12:43Z</time>
      </trkpt>
      <trkpt lat="43.00734" lon="-0.09491">
        <ele>430.81</ele>
        <time>2013-12-07T11:13:11Z</time>
      </trkpt>
      <trkpt lat="43.00734" lon="-0.0949">
        <ele>430.33</ele>
        <time>2013-12-07T11:13:37Z</time>
      </trkpt>
      <trkpt lat="43.00734" lon="-0.0949">
        <ele>431.29</ele>
        <time>2013-12-07T11:14:06Z</time>
      </trkpt>
      <trkpt lat="43.00734" lon="-0.09489">
        <ele>430.81</ele>
        <time>2013-12-07T11:14:35Z</time>
      </trkpt>
      <trkpt lat="43.00735" lon="-0.0949">
        <ele>431.29</ele>
        <time>2013-12-07T11:14:58Z</time>
      </trkpt>
    </trkseg>
  </trk>
</gpx>